<?xml version="1.0" encoding="UTF-8" standalone="no" ?><gpx xmlns="http://www.topografix.com/GPX/1/1" xmlns:gpxx="http://www.garmin.com/xmlschemas/GpxExtensions/v3" xmlns:wptx1="http://www.garmin.com/xmlschemas/WaypointExtension/v1" xmlns:gpxtpx="http://www.garmin.com/xmlschemas/TrackPointExtension/v1" creator="GuideVTT.com" version="1.1" xmlns:xsi="http://www.w3.org/2001/XMLSchema-instance" xsi:schemaLocation="http://www.topografix.com/GPX/1/1 http://www.topografix.com/GPX/1/1/gpx.xsd http://www.garmin.com/xmlschemas/GpxExtensions/v3 http://www8.garmin.com/xmlschemas/GpxExtensionsv3.xsd http://www.garmin.com/xmlschemas/WaypointExtension/v1 http://www8.garmin.com/xmlschemas/WaypointExtensionv1.xsd http://www.garmin.com/xmlschemas/TrackPointExtension/v1 http://www.garmin.com/xmlschemas/TrackPointExtensionv1.xsd">
<metadata><link href="http://www.garmin.com"><text>Garmin International</text></link><time>2013-06-22T15:13:50Z</time></metadata>
<trk><name>face_nord_saillon_2010.gpx</name><extensions><gpxx:TrackExtension><gpxx:DisplayColor>Cyan</gpxx:DisplayColor></gpxx:TrackExtension></extensions><trkseg>
<trkpt lat="46.17415619" lon="7.19217396"><ele>477.1390074168</ele><time>2010-05-15T14:00:35Z</time></trkpt>
<trkpt lat="46.17404556" lon="7.19238615"><ele>476.3120118648</ele><time>2010-05-15T14:00:44Z</time></trkpt>
<trkpt lat="46.17389679" lon="7.19266701"><ele>475.8120118488</ele><time>2010-05-15T14:00:49Z</time></trkpt>
<trkpt lat="46.17359543" lon="7.19323683"><ele>474.9240111864</ele><time>2010-05-15T14:00:57Z</time></trkpt>
<trkpt lat="46.17321777" lon="7.19393015"><ele>473.0010069552</ele><time>2010-05-15T14:01:06Z</time></trkpt>
<trkpt lat="46.17304611" lon="7.19424105"><ele>472.2120056376</ele><time>2010-05-15T14:01:10Z</time></trkpt>
<trkpt lat="46.17305374" lon="7.19448996"><ele>472.067993124</ele><time>2010-05-15T14:01:13Z</time></trkpt>
<trkpt lat="46.17310715" lon="7.19454622"><ele>472.218994092</ele><time>2010-05-15T14:01:14Z</time></trkpt>
<trkpt lat="46.17362595" lon="7.19512415"><ele>472.2210082104</ele><time>2010-05-15T14:01:23Z</time></trkpt>
<trkpt lat="46.17399979" lon="7.19565582"><ele>472.6210021272</ele><time>2010-05-15T14:01:30Z</time></trkpt>
<trkpt lat="46.17425156" lon="7.19604683"><ele>473.2699889928</ele><time>2010-05-15T14:01:35Z</time></trkpt>
<trkpt lat="46.17456818" lon="7.19661188"><ele>473.7749938248</ele><time>2010-05-15T14:01:42Z</time></trkpt>
<trkpt lat="46.17502975" lon="7.19747114"><ele>473.9079896472</ele><time>2010-05-15T14:01:52Z</time></trkpt>
<trkpt lat="46.17551041" lon="7.19832706"><ele>474.6229858296</ele><time>2010-05-15T14:02:02Z</time></trkpt>
<trkpt lat="46.17573547" lon="7.19874191"><ele>475.4939881008</ele><time>2010-05-15T14:02:07Z</time></trkpt>
<trkpt lat="46.17616272" lon="7.19951582"><ele>477.4339904184</ele><time>2010-05-15T14:02:17Z</time></trkpt>
<trkpt lat="46.17628860" lon="7.19973707"><ele>477.9249878616</ele><time>2010-05-15T14:02:20Z</time></trkpt>
<trkpt lat="46.17631531" lon="7.20006418"><ele>478.447998144</ele><time>2010-05-15T14:02:24Z</time></trkpt>
<trkpt lat="46.17628479" lon="7.20015287"><ele>478.3670042496</ele><time>2010-05-15T14:02:25Z</time></trkpt>
<trkpt lat="46.17602539" lon="7.20079613"><ele>477.2340087</ele><time>2010-05-15T14:02:32Z</time></trkpt>
<trkpt lat="46.17596817" lon="7.20087910"><ele>477.0169984152</ele><time>2010-05-15T14:02:33Z</time></trkpt>
<trkpt lat="46.17569733" lon="7.20111179"><ele>476.5329894264</ele><time>2010-05-15T14:02:37Z</time></trkpt>
<trkpt lat="46.17527771" lon="7.20135021"><ele>478.6260071352</ele><time>2010-05-15T14:02:43Z</time></trkpt>
<trkpt lat="46.17504120" lon="7.20131302"><ele>479.9049988368</ele><time>2010-05-15T14:02:47Z</time></trkpt>
<trkpt lat="46.17465210" lon="7.20087194"><ele>480.5809937256</ele><time>2010-05-15T14:02:55Z</time></trkpt>
<trkpt lat="46.17433167" lon="7.20060778"><ele>480.713012664</ele><time>2010-05-15T14:03:01Z</time></trkpt>
<trkpt lat="46.17377853" lon="7.20022488"><ele>479.6099853552</ele><time>2010-05-15T14:03:11Z</time></trkpt>
<trkpt lat="46.17329407" lon="7.19998980"><ele>478.890014532</ele><time>2010-05-15T14:03:20Z</time></trkpt>
<trkpt lat="46.17286682" lon="7.19982910"><ele>478.2669981504</ele><time>2010-05-15T14:03:28Z</time></trkpt>
<trkpt lat="46.17238617" lon="7.19970322"><ele>477.8039856144</ele><time>2010-05-15T14:03:36Z</time></trkpt>
<trkpt lat="46.17198563" lon="7.19966793"><ele>477.4190064504</ele><time>2010-05-15T14:03:42Z</time></trkpt>
<trkpt lat="46.17147827" lon="7.19959879"><ele>477.4590148032</ele><time>2010-05-15T14:03:50Z</time></trkpt>
<trkpt lat="46.17079926" lon="7.19950724"><ele>476.7200012952</ele><time>2010-05-15T14:04:01Z</time></trkpt>
<trkpt lat="46.17011261" lon="7.19941282"><ele>476.6539916736</ele><time>2010-05-15T14:04:12Z</time></trkpt>
<trkpt lat="46.16952133" lon="7.19934082"><ele>476.8720093224</ele><time>2010-05-15T14:04:22Z</time></trkpt>
<trkpt lat="46.16921997" lon="7.19929409"><ele>477.2959900848</ele><time>2010-05-15T14:04:27Z</time></trkpt>
<trkpt lat="46.16901016" lon="7.19927120"><ele>476.1480102624</ele><time>2010-05-15T14:04:31Z</time></trkpt>
<trkpt lat="46.16904831" lon="7.19885397"><ele>474.0100098648</ele><time>2010-05-15T14:04:34Z</time></trkpt>
<trkpt lat="46.16920471" lon="7.19851589"><ele>471.7810059408</ele><time>2010-05-15T14:04:38Z</time></trkpt>
<trkpt lat="46.16939926" lon="7.19776583"><ele>470.4299927424</ele><time>2010-05-15T14:04:41Z</time></trkpt>
<trkpt lat="46.16913223" lon="7.19928217"><ele>470.209014876</ele><time>2010-05-15T14:04:43Z</time></trkpt>
<trkpt lat="46.16920090" lon="7.19852304"><ele>470.3619994824</ele><time>2010-05-15T14:04:44Z</time></trkpt>
<trkpt lat="46.16900635" lon="7.19894409"><ele>470.4389953152</ele><time>2010-05-15T14:04:51Z</time></trkpt>
<trkpt lat="46.16879654" lon="7.19923592"><ele>471.0610046376</ele><time>2010-05-15T14:04:55Z</time></trkpt>
<trkpt lat="46.16869354" lon="7.19921303"><ele>470.9620055976</ele><time>2010-05-15T14:04:57Z</time></trkpt>
<trkpt lat="46.16843796" lon="7.19915199"><ele>471.036987312</ele><time>2010-05-15T14:05:02Z</time></trkpt>
<trkpt lat="46.16795731" lon="7.19903183"><ele>470.53201296</ele><time>2010-05-15T14:05:12Z</time></trkpt>
<trkpt lat="46.16761017" lon="7.19890404"><ele>469.772003304</ele><time>2010-05-15T14:05:19Z</time></trkpt>
<trkpt lat="46.16739655" lon="7.19882298"><ele>469.9030151832</ele><time>2010-05-15T14:05:24Z</time></trkpt>
<trkpt lat="46.16715240" lon="7.19872189"><ele>470.6499940296</ele><time>2010-05-15T14:05:30Z</time></trkpt>
<trkpt lat="46.16711426" lon="7.19870377"><ele>470.6549988456</ele><time>2010-05-15T14:05:31Z</time></trkpt>
<trkpt lat="46.16681290" lon="7.19856024"><ele>471.0220030392</ele><time>2010-05-15T14:05:39Z</time></trkpt>
<trkpt lat="46.16666412" lon="7.19848585"><ele>470.3900145648</ele><time>2010-05-15T14:05:43Z</time></trkpt>
<trkpt lat="46.16647720" lon="7.19839096"><ele>470.100006204</ele><time>2010-05-15T14:05:48Z</time></trkpt>
<trkpt lat="46.16623688" lon="7.19826412"><ele>469.864990164</ele><time>2010-05-15T14:05:54Z</time></trkpt>
<trkpt lat="46.16587830" lon="7.19806099"><ele>470.1499940136</ele><time>2010-05-15T14:06:03Z</time></trkpt>
<trkpt lat="46.16560745" lon="7.19790888"><ele>470.4440001312</ele><time>2010-05-15T14:06:10Z</time></trkpt>
<trkpt lat="46.16523743" lon="7.19769907"><ele>470.7179869848</ele><time>2010-05-15T14:06:19Z</time></trkpt>
<trkpt lat="46.16488266" lon="7.19749784"><ele>471.3659972712</ele><time>2010-05-15T14:06:27Z</time></trkpt>
<trkpt lat="46.16459274" lon="7.19732618"><ele>472.3450011552</ele><time>2010-05-15T14:06:34Z</time></trkpt>
<trkpt lat="46.16455841" lon="7.19729900"><ele>472.7080078968</ele><time>2010-05-15T14:06:36Z</time></trkpt>
<trkpt lat="46.16444016" lon="7.19720793"><ele>471.230011056</ele><time>2010-05-15T14:06:41Z</time></trkpt>
<trkpt lat="46.16417313" lon="7.19700384"><ele>470.9410094496</ele><time>2010-05-15T14:06:47Z</time></trkpt>
<trkpt lat="46.16396713" lon="7.19684696"><ele>470.5570068648</ele><time>2010-05-15T14:06:53Z</time></trkpt>
<trkpt lat="46.16371536" lon="7.19665480"><ele>470.0029908024</ele><time>2010-05-15T14:07:00Z</time></trkpt>
<trkpt lat="46.16364288" lon="7.19659424"><ele>469.8450010752</ele><time>2010-05-15T14:07:02Z</time></trkpt>
<trkpt lat="46.16344452" lon="7.19638300"><ele>469.7699888808</ele><time>2010-05-15T14:07:08Z</time></trkpt>
<trkpt lat="46.16322708" lon="7.19613218"><ele>469.6900023504</ele><time>2010-05-15T14:07:15Z</time></trkpt>
<trkpt lat="46.16303635" lon="7.19589996"><ele>470.225006208</ele><time>2010-05-15T14:07:21Z</time></trkpt>
<trkpt lat="46.16278458" lon="7.19558907"><ele>471.817993116</ele><time>2010-05-15T14:07:29Z</time></trkpt>
<trkpt lat="46.16251373" lon="7.19523621"><ele>471.9570008136</ele><time>2010-05-15T14:07:37Z</time></trkpt>
<trkpt lat="46.16230774" lon="7.19489813"><ele>472.9750059912</ele><time>2010-05-15T14:07:44Z</time></trkpt>
<trkpt lat="46.16203690" lon="7.19441509"><ele>472.8840027696</ele><time>2010-05-15T14:07:53Z</time></trkpt>
<trkpt lat="46.16189575" lon="7.19406414"><ele>473.3429870688</ele><time>2010-05-15T14:07:59Z</time></trkpt>
<trkpt lat="46.16173553" lon="7.19358206"><ele>473.0950011792</ele><time>2010-05-15T14:08:08Z</time></trkpt>
<trkpt lat="46.16164398" lon="7.19330311"><ele>473.2600098408</ele><time>2010-05-15T14:08:13Z</time></trkpt>
<trkpt lat="46.16155243" lon="7.19292116"><ele>473.0270079192</ele><time>2010-05-15T14:08:19Z</time></trkpt>
<trkpt lat="46.16153717" lon="7.19285917"><ele>473.0039976528</ele><time>2010-05-15T14:08:20Z</time></trkpt>
<trkpt lat="46.16141891" lon="7.19236994"><ele>472.9079896152</ele><time>2010-05-15T14:08:28Z</time></trkpt>
<trkpt lat="46.16128540" lon="7.19183111"><ele>473.3039854704</ele><time>2010-05-15T14:08:37Z</time></trkpt>
<trkpt lat="46.16112137" lon="7.19115591"><ele>473.209014972</ele><time>2010-05-15T14:08:48Z</time></trkpt>
<trkpt lat="46.16102982" lon="7.19077682"><ele>473.177001828</ele><time>2010-05-15T14:08:54Z</time></trkpt>
<trkpt lat="46.16098785" lon="7.19059277"><ele>472.9830018096</ele><time>2010-05-15T14:08:58Z</time></trkpt>
<trkpt lat="46.16098404" lon="7.19057894"><ele>472.7460021312</ele><time>2010-05-15T14:09:00Z</time></trkpt>
<trkpt lat="46.16101456" lon="7.19071007"><ele>472.9200133656</ele><time>2010-05-15T14:09:08Z</time></trkpt>
<trkpt lat="46.16101837" lon="7.19073105"><ele>472.8059998776</ele><time>2010-05-15T14:09:11Z</time></trkpt>
<trkpt lat="46.16101837" lon="7.19072104"><ele>473.5790098632</ele><time>2010-05-15T14:09:13Z</time></trkpt>
<trkpt lat="46.16097260" lon="7.19054079"><ele>474.692993208</ele><time>2010-05-15T14:09:19Z</time></trkpt>
<trkpt lat="46.16094971" lon="7.19043303"><ele>474.7590028296</ele><time>2010-05-15T14:09:21Z</time></trkpt>
<trkpt lat="46.16088486" lon="7.19017076"><ele>474.911987436</ele><time>2010-05-15T14:09:25Z</time></trkpt>
<trkpt lat="46.16085434" lon="7.19004917"><ele>474.9670105416</ele><time>2010-05-15T14:09:27Z</time></trkpt>
<trkpt lat="46.16080475" lon="7.18984795"><ele>474.9559935456</ele><time>2010-05-15T14:09:30Z</time></trkpt>
<trkpt lat="46.16073990" lon="7.18958378"><ele>474.9630127848</ele><time>2010-05-15T14:09:34Z</time></trkpt>
<trkpt lat="46.16068649" lon="7.18934488"><ele>474.661987428</ele><time>2010-05-15T14:09:38Z</time></trkpt>
<trkpt lat="46.16060257" lon="7.18895292"><ele>475.9500121824</ele><time>2010-05-15T14:09:46Z</time></trkpt>
<trkpt lat="46.16059494" lon="7.18890190"><ele>476.7250061112</ele><time>2010-05-15T14:09:48Z</time></trkpt>
<trkpt lat="46.16056061" lon="7.18875408"><ele>476.7330016248</ele><time>2010-05-15T14:09:53Z</time></trkpt>
<trkpt lat="46.16051865" lon="7.18855286"><ele>476.5559996928</ele><time>2010-05-15T14:09:59Z</time></trkpt>
<trkpt lat="46.16045761" lon="7.18826199"><ele>473.697997992</ele><time>2010-05-15T14:10:03Z</time></trkpt>
<trkpt lat="46.16043854" lon="7.18817902"><ele>473.1520079232</ele><time>2010-05-15T14:10:04Z</time></trkpt>
<trkpt lat="46.16033173" lon="7.18772221"><ele>471.5490110784</ele><time>2010-05-15T14:10:11Z</time></trkpt>
<trkpt lat="46.16025925" lon="7.18741894"><ele>474.1600037736</ele><time>2010-05-15T14:10:17Z</time></trkpt>
<trkpt lat="46.16019440" lon="7.18715715"><ele>471.666992148</ele><time>2010-05-15T14:10:21Z</time></trkpt>
<trkpt lat="46.16012573" lon="7.18687391"><ele>474.2179870968</ele><time>2010-05-15T14:10:25Z</time></trkpt>
<trkpt lat="46.16006851" lon="7.18662691"><ele>475.0130005944</ele><time>2010-05-15T14:10:29Z</time></trkpt>
<trkpt lat="46.15996933" lon="7.18621397"><ele>472.744995072</ele><time>2010-05-15T14:10:36Z</time></trkpt>
<trkpt lat="46.15989304" lon="7.18589020"><ele>469.8009949656</ele><time>2010-05-15T14:10:41Z</time></trkpt>
<trkpt lat="46.15987396" lon="7.18580914"><ele>469.7550049128</ele><time>2010-05-15T14:10:42Z</time></trkpt>
<trkpt lat="46.15979385" lon="7.18541813"><ele>476.3500060992</ele><time>2010-05-15T14:10:46Z</time></trkpt>
<trkpt lat="46.15974045" lon="7.18512678"><ele>476.8250122104</ele><time>2010-05-15T14:10:50Z</time></trkpt>
<trkpt lat="46.15970993" lon="7.18497181"><ele>477.0729981</ele><time>2010-05-15T14:10:52Z</time></trkpt>
<trkpt lat="46.15966415" lon="7.18472481"><ele>476.6019897456</ele><time>2010-05-15T14:10:56Z</time></trkpt>
<trkpt lat="46.15960312" lon="7.18440819"><ele>474.0920105136</ele><time>2010-05-15T14:11:01Z</time></trkpt>
<trkpt lat="46.15953827" lon="7.18406391"><ele>478.8890074728</ele><time>2010-05-15T14:11:06Z</time></trkpt>
<trkpt lat="46.15949631" lon="7.18383408"><ele>475.4809874664</ele><time>2010-05-15T14:11:11Z</time></trkpt>
<trkpt lat="46.15943909" lon="7.18353510"><ele>475.249999968</ele><time>2010-05-15T14:11:16Z</time></trkpt>
<trkpt lat="46.15939331" lon="7.18329477"><ele>472.3779905736</ele><time>2010-05-15T14:11:20Z</time></trkpt>
<trkpt lat="46.15932846" lon="7.18295288"><ele>474.729003804</ele><time>2010-05-15T14:11:25Z</time></trkpt>
<trkpt lat="46.15928268" lon="7.18266010"><ele>472.4370117408</ele><time>2010-05-15T14:11:29Z</time></trkpt>
<trkpt lat="46.15921021" lon="7.18220282"><ele>468.7210084032</ele><time>2010-05-15T14:11:35Z</time></trkpt>
<trkpt lat="46.15916824" lon="7.18193913"><ele>467.6950074072</ele><time>2010-05-15T14:11:38Z</time></trkpt>
<trkpt lat="46.15909576" lon="7.18144417"><ele>467.2319945664</ele><time>2010-05-15T14:11:44Z</time></trkpt>
<trkpt lat="46.15906143" lon="7.18120384"><ele>466.9880067384</ele><time>2010-05-15T14:11:47Z</time></trkpt>
<trkpt lat="46.15900421" lon="7.18081379"><ele>467.3989868664</ele><time>2010-05-15T14:11:52Z</time></trkpt>
<trkpt lat="46.15893936" lon="7.18034601"><ele>467.2489929576</ele><time>2010-05-15T14:11:58Z</time></trkpt>
<trkpt lat="46.15886688" lon="7.17982197"><ele>468.0069884952</ele><time>2010-05-15T14:12:05Z</time></trkpt>
<trkpt lat="46.15879822" lon="7.17934322"><ele>468.7900084176</ele><time>2010-05-15T14:12:12Z</time></trkpt>
<trkpt lat="46.15876007" lon="7.17905283"><ele>470.9809876272</ele><time>2010-05-15T14:12:16Z</time></trkpt>
<trkpt lat="46.15871429" lon="7.17872906"><ele>472.4509886496</ele><time>2010-05-15T14:12:20Z</time></trkpt>
<trkpt lat="46.15866089" lon="7.17836285"><ele>474.7349851992</ele><time>2010-05-15T14:12:25Z</time></trkpt>
<trkpt lat="46.15865326" lon="7.17828989"><ele>474.8949890448</ele><time>2010-05-15T14:12:26Z</time></trkpt>
<trkpt lat="46.15861130" lon="7.17800522"><ele>474.713989356</ele><time>2010-05-15T14:12:30Z</time></trkpt>
<trkpt lat="46.15858841" lon="7.17785311"><ele>475.348999008</ele><time>2010-05-15T14:12:32Z</time></trkpt>
<trkpt lat="46.15854645" lon="7.17755079"><ele>479.4859924104</ele><time>2010-05-15T14:12:36Z</time></trkpt>
<trkpt lat="46.15850830" lon="7.17726803"><ele>482.2470091896</ele><time>2010-05-15T14:12:40Z</time></trkpt>
<trkpt lat="46.15847397" lon="7.17703390"><ele>481.6099854192</ele><time>2010-05-15T14:12:43Z</time></trkpt>
<trkpt lat="46.15845490" lon="7.17688608"><ele>481.1109924624</ele><time>2010-05-15T14:12:45Z</time></trkpt>
<trkpt lat="46.15838242" lon="7.17637396"><ele>480.540985068</ele><time>2010-05-15T14:12:52Z</time></trkpt>
<trkpt lat="46.15835190" lon="7.17614698"><ele>479.8640136</ele><time>2010-05-15T14:12:55Z</time></trkpt>
<trkpt lat="46.15829086" lon="7.17570877"><ele>478.7590026528</ele><time>2010-05-15T14:13:01Z</time></trkpt>
<trkpt lat="46.15822983" lon="7.17536116"><ele>478.0169981424</ele><time>2010-05-15T14:13:06Z</time></trkpt>
<trkpt lat="46.15812683" lon="7.17476797"><ele>475.7520141024</ele><time>2010-05-15T14:13:14Z</time></trkpt>
<trkpt lat="46.15808868" lon="7.17455196"><ele>475.1780089512</ele><time>2010-05-15T14:13:17Z</time></trkpt>
<trkpt lat="46.15802002" lon="7.17416286"><ele>473.45901498</ele><time>2010-05-15T14:13:22Z</time></trkpt>
<trkpt lat="46.15799332" lon="7.17400217"><ele>473.6019896496</ele><time>2010-05-15T14:13:24Z</time></trkpt>
<trkpt lat="46.15791321" lon="7.17355108"><ele>472.2650146248</ele><time>2010-05-15T14:13:30Z</time></trkpt>
<trkpt lat="46.15787125" lon="7.17330408"><ele>472.1119995384</ele><time>2010-05-15T14:13:33Z</time></trkpt>
<trkpt lat="46.15780640" lon="7.17297888"><ele>473.0960082384</ele><time>2010-05-15T14:13:38Z</time></trkpt>
<trkpt lat="46.15777588" lon="7.17285013"><ele>473.2860108048</ele><time>2010-05-15T14:13:40Z</time></trkpt>
<trkpt lat="46.15769577" lon="7.17250586"><ele>473.5929870768</ele><time>2010-05-15T14:13:45Z</time></trkpt>
<trkpt lat="46.15809250" lon="7.17229080"><ele>476.635009644</ele><time>2010-05-15T14:13:49Z</time></trkpt>
<trkpt lat="46.15811539" lon="7.17218399"><ele>476.9070128592</ele><time>2010-05-15T14:13:53Z</time></trkpt>
<trkpt lat="46.15813446" lon="7.17198420"><ele>475.6579893984</ele><time>2010-05-15T14:13:56Z</time></trkpt>
<trkpt lat="46.15843201" lon="7.17222309"><ele>474.6960143856</ele><time>2010-05-15T14:13:58Z</time></trkpt>
<trkpt lat="46.15873337" lon="7.17196989"><ele>474.557006688</ele><time>2010-05-15T14:14:05Z</time></trkpt>
<trkpt lat="46.15877533" lon="7.17193890"><ele>475.3299864984</ele><time>2010-05-15T14:14:06Z</time></trkpt>
<trkpt lat="46.15885925" lon="7.17186880"><ele>474.8299864824</ele><time>2010-05-15T14:14:08Z</time></trkpt>
<trkpt lat="46.15895081" lon="7.17179585"><ele>474.17700186</ele><time>2010-05-15T14:14:10Z</time></trkpt>
<trkpt lat="46.15916824" lon="7.17161894"><ele>475.2890015664</ele><time>2010-05-15T14:14:15Z</time></trkpt>
<trkpt lat="46.15924835" lon="7.17155313"><ele>474.9190063704</ele><time>2010-05-15T14:14:17Z</time></trkpt>
<trkpt lat="46.15943146" lon="7.17140293"><ele>476.0450134656</ele><time>2010-05-15T14:14:22Z</time></trkpt>
<trkpt lat="46.15955353" lon="7.17129183"><ele>476.1960144336</ele><time>2010-05-15T14:14:26Z</time></trkpt>
<trkpt lat="46.15958023" lon="7.17126703"><ele>475.8510131424</ele><time>2010-05-15T14:14:27Z</time></trkpt>
<trkpt lat="46.15976715" lon="7.17109585"><ele>475.2489929088</ele><time>2010-05-15T14:14:33Z</time></trkpt>
<trkpt lat="46.15989304" lon="7.17097998"><ele>475.4760131304</ele><time>2010-05-15T14:14:37Z</time></trkpt>
<trkpt lat="46.15996170" lon="7.17091608"><ele>474.8160095736</ele><time>2010-05-15T14:14:39Z</time></trkpt>
<trkpt lat="46.16015625" lon="7.17073917"><ele>477.1239929688</ele><time>2010-05-15T14:14:45Z</time></trkpt>
<trkpt lat="46.16030121" lon="7.17061615"><ele>478.4599914144</ele><time>2010-05-15T14:14:50Z</time></trkpt>
<trkpt lat="46.16050720" lon="7.17044592"><ele>478.5459901248</ele><time>2010-05-15T14:14:56Z</time></trkpt>
<trkpt lat="46.16058350" lon="7.17038107"><ele>477.6780090312</ele><time>2010-05-15T14:14:58Z</time></trkpt>
<trkpt lat="46.16081619" lon="7.17018986"><ele>475.8469849056</ele><time>2010-05-15T14:15:04Z</time></trkpt>
<trkpt lat="46.16081238" lon="7.16966391"><ele>475.6340025528</ele><time>2010-05-15T14:15:08Z</time></trkpt>
<trkpt lat="46.16077805" lon="7.16956282"><ele>475.1709900168</ele><time>2010-05-15T14:15:10Z</time></trkpt>
<trkpt lat="46.16074371" lon="7.16945887"><ele>474.7680054024</ele><time>2010-05-15T14:15:12Z</time></trkpt>
<trkpt lat="46.16053391" lon="7.16950512"><ele>475.0499877696</ele><time>2010-05-15T14:15:16Z</time></trkpt>
<trkpt lat="46.16020966" lon="7.16978598"><ele>474.7439880768</ele><time>2010-05-15T14:15:24Z</time></trkpt>
<trkpt lat="46.15996170" lon="7.17000198"><ele>472.7470091904</ele><time>2010-05-15T14:15:30Z</time></trkpt>
<trkpt lat="46.15952682" lon="7.17037821"><ele>472.0329895872</ele><time>2010-05-15T14:15:41Z</time></trkpt>
<trkpt lat="46.15922928" lon="7.17063713"><ele>471.265991172</ele><time>2010-05-15T14:15:47Z</time></trkpt>
<trkpt lat="46.15890503" lon="7.17091703"><ele>471.2550049608</ele><time>2010-05-15T14:15:55Z</time></trkpt>
<trkpt lat="46.15852737" lon="7.17124796"><ele>471.5130004824</ele><time>2010-05-15T14:16:04Z</time></trkpt>
<trkpt lat="46.15848160" lon="7.17128611"><ele>471.7460020992</ele><time>2010-05-15T14:16:05Z</time></trkpt>
<trkpt lat="46.15827942" lon="7.17146587"><ele>472.8659973192</ele><time>2010-05-15T14:16:10Z</time></trkpt>
<trkpt lat="46.15806580" lon="7.17170286"><ele>473.6789854824</ele><time>2010-05-15T14:16:16Z</time></trkpt>
<trkpt lat="46.15811539" lon="7.17183590"><ele>474.1440124416</ele><time>2010-05-15T14:16:19Z</time></trkpt>
<trkpt lat="46.15824127" lon="7.17239380"><ele>474.6480102144</ele><time>2010-05-15T14:16:24Z</time></trkpt>
<trkpt lat="46.15815353" lon="7.17247009"><ele>475.6260070392</ele><time>2010-05-15T14:16:27Z</time></trkpt>
<trkpt lat="46.15777206" lon="7.17203712"><ele>475.4939881008</ele><time>2010-05-15T14:16:30Z</time></trkpt>
<trkpt lat="46.15767670" lon="7.17175388"><ele>473.6390076096</ele><time>2010-05-15T14:16:34Z</time></trkpt>
<trkpt lat="46.15755844" lon="7.17116690"><ele>472.5780030768</ele><time>2010-05-15T14:16:42Z</time></trkpt>
<trkpt lat="46.15738678" lon="7.17046690"><ele>473.0820008496</ele><time>2010-05-15T14:16:52Z</time></trkpt>
<trkpt lat="46.15721512" lon="7.16983414"><ele>473.6629944552</ele><time>2010-05-15T14:17:01Z</time></trkpt>
<trkpt lat="46.15717697" lon="7.16969395"><ele>473.8139954232</ele><time>2010-05-15T14:17:03Z</time></trkpt>
<trkpt lat="46.15705872" lon="7.16927814"><ele>473.8900146768</ele><time>2010-05-15T14:17:09Z</time></trkpt>
<trkpt lat="46.15690613" lon="7.16870213"><ele>474.239990304</ele><time>2010-05-15T14:17:17Z</time></trkpt>
<trkpt lat="46.15678787" lon="7.16828918"><ele>474.5010070032</ele><time>2010-05-15T14:17:23Z</time></trkpt>
<trkpt lat="46.15665054" lon="7.16780806"><ele>473.7019957488</ele><time>2010-05-15T14:17:31Z</time></trkpt>
<trkpt lat="46.15650177" lon="7.16728497"><ele>473.427001836</ele><time>2010-05-15T14:17:40Z</time></trkpt>
<trkpt lat="46.15639877" lon="7.16689491"><ele>473.55801402</ele><time>2010-05-15T14:17:47Z</time></trkpt>
<trkpt lat="46.15636826" lon="7.16677904"><ele>473.567993172</ele><time>2010-05-15T14:17:49Z</time></trkpt>
<trkpt lat="46.15633392" lon="7.16664791"><ele>474.4559935296</ele><time>2010-05-15T14:17:53Z</time></trkpt>
<trkpt lat="46.15633392" lon="7.16664791"><ele>476.2999878096</ele><time>2010-05-15T14:17:56Z</time></trkpt>
<trkpt lat="46.15624237" lon="7.16629505"><ele>475.807006728</ele><time>2010-05-15T14:18:00Z</time></trkpt>
<trkpt lat="46.15623856" lon="7.16622877"><ele>473.1419982912</ele><time>2010-05-15T14:18:04Z</time></trkpt>
<trkpt lat="46.15623474" lon="7.16617107"><ele>471.9739989</ele><time>2010-05-15T14:18:08Z</time></trkpt>
<trkpt lat="46.15637589" lon="7.16540289"><ele>472.7529905856</ele><time>2010-05-15T14:18:12Z</time></trkpt>
<trkpt lat="46.15637589" lon="7.16540289"><ele>473.9760130824</ele><time>2010-05-15T14:18:14Z</time></trkpt>
<trkpt lat="46.15637589" lon="7.16540289"><ele>474.765991284</ele><time>2010-05-15T14:18:18Z</time></trkpt>
<trkpt lat="46.15622330" lon="7.16606188"><ele>479.2109984976</ele><time>2010-05-15T14:18:23Z</time></trkpt>
<trkpt lat="46.15595245" lon="7.16559219"><ele>480.5849914824</ele><time>2010-05-15T14:18:25Z</time></trkpt>
<trkpt lat="46.15603638" lon="7.16550303"><ele>480.8469847608</ele><time>2010-05-15T14:18:30Z</time></trkpt>
<trkpt lat="46.15637589" lon="7.16540289"><ele>477.1709900808</ele><time>2010-05-15T14:18:35Z</time></trkpt>
<trkpt lat="46.15637589" lon="7.16540289"><ele>477.8649901152</ele><time>2010-05-15T14:18:36Z</time></trkpt>
<trkpt lat="46.15618515" lon="7.16587496"><ele>478.588012596</ele><time>2010-05-15T14:18:40Z</time></trkpt>
<trkpt lat="46.15615082" lon="7.16579580"><ele>475.1189880888</ele><time>2010-05-15T14:18:44Z</time></trkpt>
<trkpt lat="46.15606689" lon="7.16562796"><ele>472.1960143056</ele><time>2010-05-15T14:18:50Z</time></trkpt>
<trkpt lat="46.15605164" lon="7.16560078"><ele>472.609985436</ele><time>2010-05-15T14:18:51Z</time></trkpt>
<trkpt lat="46.15609360" lon="7.16544008"><ele>471.791992152</ele><time>2010-05-15T14:18:56Z</time></trkpt>
<trkpt lat="46.15615845" lon="7.16536999"><ele>471.2720030472</ele><time>2010-05-15T14:18:58Z</time></trkpt>
<trkpt lat="46.15620422" lon="7.16531801"><ele>470.605011036</ele><time>2010-05-15T14:19:01Z</time></trkpt>
<trkpt lat="46.15620422" lon="7.16531801"><ele>470.36499018</ele><time>2010-05-15T14:19:03Z</time></trkpt>
<trkpt lat="46.15622711" lon="7.16606903"><ele>469.5360106848</ele><time>2010-05-15T14:19:12Z</time></trkpt>
<trkpt lat="46.15620422" lon="7.16591787"><ele>469.4450074632</ele><time>2010-05-15T14:19:19Z</time></trkpt>
<trkpt lat="46.15665436" lon="7.16637087"><ele>469.5140074776</ele><time>2010-05-15T14:19:23Z</time></trkpt>
<trkpt lat="46.15697479" lon="7.16608381"><ele>469.5150145368</ele><time>2010-05-15T14:19:31Z</time></trkpt>
<trkpt lat="46.15733337" lon="7.16577005"><ele>470.480011032</ele><time>2010-05-15T14:19:39Z</time></trkpt>
<trkpt lat="46.15777588" lon="7.16538286"><ele>470.7650145768</ele><time>2010-05-15T14:19:48Z</time></trkpt>
<trkpt lat="46.15821838" lon="7.16499519"><ele>472.0690001832</ele><time>2010-05-15T14:19:57Z</time></trkpt>
<trkpt lat="46.15876389" lon="7.16451693"><ele>472.5870056496</ele><time>2010-05-15T14:20:08Z</time></trkpt>
<trkpt lat="46.15917969" lon="7.16414499"><ele>472.9370117568</ele><time>2010-05-15T14:20:16Z</time></trkpt>
<trkpt lat="46.15966034" lon="7.16371822"><ele>472.843994112</ele><time>2010-05-15T14:20:25Z</time></trkpt>
<trkpt lat="46.16022491" lon="7.16322803"><ele>472.9450072704</ele><time>2010-05-15T14:20:36Z</time></trkpt>
<trkpt lat="46.16056442" lon="7.16293383"><ele>473.0360107968</ele><time>2010-05-15T14:20:43Z</time></trkpt>
<trkpt lat="46.16111374" lon="7.16245985"><ele>472.8059998776</ele><time>2010-05-15T14:20:54Z</time></trkpt>
<trkpt lat="46.16138077" lon="7.16219187"><ele>474.109985484</ele><time>2010-05-15T14:21:00Z</time></trkpt>
<trkpt lat="46.16146851" lon="7.16209984"><ele>475.6900025424</ele><time>2010-05-15T14:21:04Z</time></trkpt>
<trkpt lat="46.16154861" lon="7.16201305"><ele>477.1789855944</ele><time>2010-05-15T14:21:10Z</time></trkpt>
<trkpt lat="46.16159821" lon="7.16201305"><ele>477.76000968</ele><time>2010-05-15T14:21:13Z</time></trkpt>
<trkpt lat="46.16167831" lon="7.16206598"><ele>478.4769898056</ele><time>2010-05-15T14:21:18Z</time></trkpt>
<trkpt lat="46.16180420" lon="7.16221380"><ele>479.5119933744</ele><time>2010-05-15T14:21:26Z</time></trkpt>
<trkpt lat="46.16192627" lon="7.16238213"><ele>480.9540100992</ele><time>2010-05-15T14:21:35Z</time></trkpt>
<trkpt lat="46.16202164" lon="7.16250896"><ele>482.2900085448</ele><time>2010-05-15T14:21:42Z</time></trkpt>
<trkpt lat="46.16213226" lon="7.16266823"><ele>483.8349915864</ele><time>2010-05-15T14:21:50Z</time></trkpt>
<trkpt lat="46.16227341" lon="7.16289282"><ele>486.8039855976</ele><time>2010-05-15T14:22:01Z</time></trkpt>
<trkpt lat="46.16239929" lon="7.16311216"><ele>488.9219972112</ele><time>2010-05-15T14:22:11Z</time></trkpt>
<trkpt lat="46.16252136" lon="7.16329813"><ele>491.0440062768</ele><time>2010-05-15T14:22:20Z</time></trkpt>
<trkpt lat="46.16262817" lon="7.16344213"><ele>491.7460021296</ele><time>2010-05-15T14:22:27Z</time></trkpt>
<trkpt lat="46.16280365" lon="7.16363811"><ele>492.5180053608</ele><time>2010-05-15T14:22:36Z</time></trkpt>
<trkpt lat="46.16300583" lon="7.16385078"><ele>491.9779966872</ele><time>2010-05-15T14:22:42Z</time></trkpt>
<trkpt lat="46.16327667" lon="7.16412783"><ele>491.7239989224</ele><time>2010-05-15T14:22:48Z</time></trkpt>
<trkpt lat="46.16353226" lon="7.16446114"><ele>491.8080139944</ele><time>2010-05-15T14:22:54Z</time></trkpt>
<trkpt lat="46.16377258" lon="7.16471195"><ele>493.0230101928</ele><time>2010-05-15T14:23:00Z</time></trkpt>
<trkpt lat="46.16387558" lon="7.16496706"><ele>491.061004668</ele><time>2010-05-15T14:23:04Z</time></trkpt>
<trkpt lat="46.16405106" lon="7.16541576"><ele>486.8619994008</ele><time>2010-05-15T14:23:08Z</time></trkpt>
<trkpt lat="46.16427612" lon="7.16592598"><ele>480.1740113544</ele><time>2010-05-15T14:23:12Z</time></trkpt>
<trkpt lat="46.16429901" lon="7.16600990"><ele>478.8770142024</ele><time>2010-05-15T14:23:13Z</time></trkpt>
<trkpt lat="46.16429520" lon="7.16630507"><ele>471.3370056096</ele><time>2010-05-15T14:23:18Z</time></trkpt>
<trkpt lat="46.16460419" lon="7.16681194"><ele>468.7810058448</ele><time>2010-05-15T14:23:23Z</time></trkpt>
<trkpt lat="46.16499329" lon="7.16716194"><ele>470.1130065336</ele><time>2010-05-15T14:23:29Z</time></trkpt>
<trkpt lat="46.16547775" lon="7.16747189"><ele>471.3169860408</ele><time>2010-05-15T14:23:36Z</time></trkpt>
<trkpt lat="46.16567230" lon="7.16759682"><ele>471.8120117208</ele><time>2010-05-15T14:23:39Z</time></trkpt>
<trkpt lat="46.16583252" lon="7.16791821"><ele>471.6229857336</ele><time>2010-05-15T14:23:43Z</time></trkpt>
<trkpt lat="46.16585922" lon="7.16801214"><ele>471.593994072</ele><time>2010-05-15T14:23:44Z</time></trkpt>
<trkpt lat="46.16616440" lon="7.16892290"><ele>472.73498544</ele><time>2010-05-15T14:23:54Z</time></trkpt>
<trkpt lat="46.16651535" lon="7.16944599"><ele>473.6369934912</ele><time>2010-05-15T14:24:01Z</time></trkpt>
<trkpt lat="46.16706467" lon="7.17018890"><ele>474.635986464</ele><time>2010-05-15T14:24:12Z</time></trkpt>
<trkpt lat="46.16741562" lon="7.17066002"><ele>474.9559935456</ele><time>2010-05-15T14:24:19Z</time></trkpt>
<trkpt lat="46.16762543" lon="7.17090416"><ele>475.2739868136</ele><time>2010-05-15T14:24:23Z</time></trkpt>
<trkpt lat="46.16779709" lon="7.17137623"><ele>475.7669983752</ele><time>2010-05-15T14:24:28Z</time></trkpt>
<trkpt lat="46.16810989" lon="7.17191982"><ele>475.7049865104</ele><time>2010-05-15T14:24:35Z</time></trkpt>
<trkpt lat="46.16843033" lon="7.17229319"><ele>476.1749878056</ele><time>2010-05-15T14:24:41Z</time></trkpt>
<trkpt lat="46.16880035" lon="7.17267990"><ele>475.7420044704</ele><time>2010-05-15T14:24:48Z</time></trkpt>
<trkpt lat="46.16890717" lon="7.17281103"><ele>475.7539977408</ele><time>2010-05-15T14:24:50Z</time></trkpt>
<trkpt lat="46.16903305" lon="7.17324209"><ele>476.4330138072</ele><time>2010-05-15T14:24:55Z</time></trkpt>
<trkpt lat="46.16903687" lon="7.17333508"><ele>476.604003864</ele><time>2010-05-15T14:24:56Z</time></trkpt>
<trkpt lat="46.16903305" lon="7.17351007"><ele>476.921997132</ele><time>2010-05-15T14:24:58Z</time></trkpt>
<trkpt lat="46.16890717" lon="7.17416811"><ele>477.7250061432</ele><time>2010-05-15T14:25:05Z</time></trkpt>
<trkpt lat="46.16884232" lon="7.17455196"><ele>478.177001988</ele><time>2010-05-15T14:25:09Z</time></trkpt>
<trkpt lat="46.16892242" lon="7.17487001"><ele>478.708007784</ele><time>2010-05-15T14:25:13Z</time></trkpt>
<trkpt lat="46.16915894" lon="7.17528296"><ele>479.3580017088</ele><time>2010-05-15T14:25:20Z</time></trkpt>
<trkpt lat="46.16925049" lon="7.17540216"><ele>479.630004924</ele><time>2010-05-15T14:25:23Z</time></trkpt>
<trkpt lat="46.16946411" lon="7.17548180"><ele>481.5329895864</ele><time>2010-05-15T14:25:28Z</time></trkpt>
<trkpt lat="46.16959381" lon="7.17561722"><ele>481.6510008312</ele><time>2010-05-15T14:25:32Z</time></trkpt>
<trkpt lat="46.16947556" lon="7.17570782"><ele>484.045989996</ele><time>2010-05-15T14:25:34Z</time></trkpt>
<trkpt lat="46.16936111" lon="7.17574501"><ele>483.029998632</ele><time>2010-05-15T14:25:36Z</time></trkpt>
<trkpt lat="46.16916656" lon="7.17591810"><ele>481.432006908</ele><time>2010-05-15T14:25:40Z</time></trkpt>
<trkpt lat="46.16916656" lon="7.17591810"><ele>480.4809876264</ele><time>2010-05-15T14:25:43Z</time></trkpt>
<trkpt lat="46.16903687" lon="7.17637682"><ele>480.2120055888</ele><time>2010-05-15T14:25:45Z</time></trkpt>
<trkpt lat="46.16918564" lon="7.17671204"><ele>480.1669921152</ele><time>2010-05-15T14:25:49Z</time></trkpt>
<trkpt lat="46.16925430" lon="7.17693186"><ele>479.9620055808</ele><time>2010-05-15T14:25:52Z</time></trkpt>
<trkpt lat="46.16934586" lon="7.17710495"><ele>479.5679930592</ele><time>2010-05-15T14:25:54Z</time></trkpt>
<trkpt lat="46.16928101" lon="7.17734623"><ele>479.020996236</ele><time>2010-05-15T14:25:57Z</time></trkpt>
<trkpt lat="46.16923523" lon="7.17743683"><ele>478.2409971864</ele><time>2010-05-15T14:25:58Z</time></trkpt>
<trkpt lat="46.16915131" lon="7.17796278"><ele>475.4719848936</ele><time>2010-05-15T14:26:03Z</time></trkpt>
<trkpt lat="46.16917419" lon="7.17807484"><ele>475.5769958088</ele><time>2010-05-15T14:26:04Z</time></trkpt>
<trkpt lat="46.16930389" lon="7.17874289"><ele>474.6210021912</ele><time>2010-05-15T14:26:10Z</time></trkpt>
<trkpt lat="46.16950989" lon="7.17969418"><ele>474.270996084</ele><time>2010-05-15T14:26:19Z</time></trkpt>
<trkpt lat="46.16952896" lon="7.17991304"><ele>474.2510069952</ele><time>2010-05-15T14:26:21Z</time></trkpt>
<trkpt lat="46.16946030" lon="7.18031311"><ele>474.2390137248</ele><time>2010-05-15T14:26:25Z</time></trkpt>
<trkpt lat="46.16942215" lon="7.18040514"><ele>474.1059874224</ele><time>2010-05-15T14:26:26Z</time></trkpt>
<trkpt lat="46.16898346" lon="7.18127823"><ele>473.6749877256</ele><time>2010-05-15T14:26:36Z</time></trkpt>
<trkpt lat="46.16890717" lon="7.18143177"><ele>473.2890015024</ele><time>2010-05-15T14:26:40Z</time></trkpt>
<trkpt lat="46.16894531" lon="7.18174791"><ele>473.3630066376</ele><time>2010-05-15T14:26:41Z</time></trkpt>
<trkpt lat="46.16898346" lon="7.18194485"><ele>473.468994132</ele><time>2010-05-15T14:26:43Z</time></trkpt>
<trkpt lat="46.16910172" lon="7.18227291"><ele>473.7489928608</ele><time>2010-05-15T14:26:47Z</time></trkpt>
<trkpt lat="46.16930389" lon="7.18286180"><ele>475.6419983712</ele><time>2010-05-15T14:26:54Z</time></trkpt>
<trkpt lat="46.16929245" lon="7.18291283"><ele>477.0759887976</ele><time>2010-05-15T14:26:58Z</time></trkpt>
<trkpt lat="46.16957474" lon="7.18311787"><ele>478.723999116</ele><time>2010-05-15T14:27:05Z</time></trkpt>
<trkpt lat="46.16971207" lon="7.18328905"><ele>480.717987</ele><time>2010-05-15T14:27:14Z</time></trkpt>
<trkpt lat="46.16988754" lon="7.18346119"><ele>484.4930115048</ele><time>2010-05-15T14:27:25Z</time></trkpt>
<trkpt lat="46.17002106" lon="7.18358183"><ele>485.6409913272</ele><time>2010-05-15T14:27:33Z</time></trkpt>
<trkpt lat="46.17016602" lon="7.18370104"><ele>485.358001596</ele><time>2010-05-15T14:27:41Z</time></trkpt>
<trkpt lat="46.17029572" lon="7.18381214"><ele>485.165985216</ele><time>2010-05-15T14:27:49Z</time></trkpt>
<trkpt lat="46.17038727" lon="7.18391800"><ele>486.1950073896</ele><time>2010-05-15T14:27:56Z</time></trkpt>
<trkpt lat="46.17050552" lon="7.18406010"><ele>488.1350097072</ele><time>2010-05-15T14:28:05Z</time></trkpt>
<trkpt lat="46.17065430" lon="7.18424702"><ele>490.3450011216</ele><time>2010-05-15T14:28:17Z</time></trkpt>
<trkpt lat="46.17078018" lon="7.18440390"><ele>492.285003744</ele><time>2010-05-15T14:28:27Z</time></trkpt>
<trkpt lat="46.17089844" lon="7.18456078"><ele>494.6870118432</ele><time>2010-05-15T14:28:36Z</time></trkpt>
<trkpt lat="46.17100906" lon="7.18474293"><ele>497.4679869264</ele><time>2010-05-15T14:28:46Z</time></trkpt>
<trkpt lat="46.17108917" lon="7.18495321"><ele>498.3909911256</ele><time>2010-05-15T14:28:55Z</time></trkpt>
<trkpt lat="46.17113876" lon="7.18521118"><ele>500.7340088424</ele><time>2010-05-15T14:29:05Z</time></trkpt>
<trkpt lat="46.17116928" lon="7.18543816"><ele>502.9039915992</ele><time>2010-05-15T14:29:14Z</time></trkpt>
<trkpt lat="46.17123413" lon="7.18560314"><ele>503.1400146984</ele><time>2010-05-15T14:29:23Z</time></trkpt>
<trkpt lat="46.17130661" lon="7.18563700"><ele>502.9530028296</ele><time>2010-05-15T14:29:28Z</time></trkpt>
<trkpt lat="46.17144012" lon="7.18550301"><ele>503.6960143992</ele><time>2010-05-15T14:29:34Z</time></trkpt>
<trkpt lat="46.17155457" lon="7.18535185"><ele>510.2810059536</ele><time>2010-05-15T14:29:40Z</time></trkpt>
<trkpt lat="46.17163467" lon="7.18529987"><ele>516.286987236</ele><time>2010-05-15T14:29:44Z</time></trkpt>
<trkpt lat="46.17165756" lon="7.18528795"><ele>525.5930176968</ele><time>2010-05-15T14:29:49Z</time></trkpt>
<trkpt lat="46.17165756" lon="7.18528795"><ele>527.6649779928</ele><time>2010-05-15T14:29:50Z</time></trkpt>
<trkpt lat="46.17177963" lon="7.18522978"><ele>525.6569824152</ele><time>2010-05-15T14:29:56Z</time></trkpt>
<trkpt lat="46.17177963" lon="7.18522978"><ele>524.9420167128</ele><time>2010-05-15T14:29:57Z</time></trkpt>
<trkpt lat="46.17199707" lon="7.18516111"><ele>520.307983512</ele><time>2010-05-15T14:30:02Z</time></trkpt>
<trkpt lat="46.17197800" lon="7.18494511"><ele>520.68798834</ele><time>2010-05-15T14:30:09Z</time></trkpt>
<trkpt lat="46.17195511" lon="7.18483114"><ele>523.2310179504</ele><time>2010-05-15T14:30:15Z</time></trkpt>
<trkpt lat="46.17193985" lon="7.18476391"><ele>526.5130004136</ele><time>2010-05-15T14:30:18Z</time></trkpt>
<trkpt lat="46.17191315" lon="7.18463993"><ele>527.1690062136</ele><time>2010-05-15T14:30:24Z</time></trkpt>
<trkpt lat="46.17190552" lon="7.18460989"><ele>529.6799928096</ele><time>2010-05-15T14:30:26Z</time></trkpt>
<trkpt lat="46.17189026" lon="7.18455315"><ele>533.437011864</ele><time>2010-05-15T14:30:30Z</time></trkpt>
<trkpt lat="46.17187500" lon="7.18449306"><ele>537.9559937328</ele><time>2010-05-15T14:30:34Z</time></trkpt>
<trkpt lat="46.17184448" lon="7.18438387"><ele>540.1979979864</ele><time>2010-05-15T14:30:39Z</time></trkpt>
<trkpt lat="46.17182541" lon="7.18422222"><ele>540.6740111568</ele><time>2010-05-15T14:30:45Z</time></trkpt>
<trkpt lat="46.17185974" lon="7.18392897"><ele>545.585998488</ele><time>2010-05-15T14:30:53Z</time></trkpt>
<trkpt lat="46.17181015" lon="7.18383884"><ele>542.9169922944</ele><time>2010-05-15T14:30:58Z</time></trkpt>
<trkpt lat="46.17172623" lon="7.18370581"><ele>539.0620117392</ele><time>2010-05-15T14:31:06Z</time></trkpt>
<trkpt lat="46.17162323" lon="7.18356895"><ele>536.4400023528</ele><time>2010-05-15T14:31:13Z</time></trkpt>
<trkpt lat="46.17156219" lon="7.18347597"><ele>535.268981784</ele><time>2010-05-15T14:31:20Z</time></trkpt>
<trkpt lat="46.17151260" lon="7.18339682"><ele>535.4270019912</ele><time>2010-05-15T14:31:28Z</time></trkpt>
<trkpt lat="46.17144775" lon="7.18329096"><ele>534.7709961912</ele><time>2010-05-15T14:31:36Z</time></trkpt>
<trkpt lat="46.17140961" lon="7.18320417"><ele>537.2410277256</ele><time>2010-05-15T14:31:42Z</time></trkpt>
<trkpt lat="46.17136383" lon="7.18308878"><ele>538.2919921464</ele><time>2010-05-15T14:31:48Z</time></trkpt>
<trkpt lat="46.17132187" lon="7.18297291"><ele>539.3720091888</ele><time>2010-05-15T14:31:54Z</time></trkpt>
<trkpt lat="46.17123032" lon="7.18279791"><ele>538.8040162176</ele><time>2010-05-15T14:32:01Z</time></trkpt>
<trkpt lat="46.17117691" lon="7.18271923"><ele>539.377990584</ele><time>2010-05-15T14:32:06Z</time></trkpt>
<trkpt lat="46.17116928" lon="7.18270397"><ele>539.1149902464</ele><time>2010-05-15T14:32:07Z</time></trkpt>
<trkpt lat="46.17109680" lon="7.18259096"><ele>539.85302748</ele><time>2010-05-15T14:32:15Z</time></trkpt>
<trkpt lat="46.17103577" lon="7.18245983"><ele>540.6790159728</ele><time>2010-05-15T14:32:21Z</time></trkpt>
<trkpt lat="46.17100143" lon="7.18235302"><ele>541.1589967248</ele><time>2010-05-15T14:32:27Z</time></trkpt>
<trkpt lat="46.17071533" lon="7.18238401"><ele>540.1430053608</ele><time>2010-05-15T14:32:30Z</time></trkpt>
<trkpt lat="46.17098999" lon="7.18220091"><ele>535.3439942832</ele><time>2010-05-15T14:32:34Z</time></trkpt>
<trkpt lat="46.17094803" lon="7.18212080"><ele>533.890014768</ele><time>2010-05-15T14:32:37Z</time></trkpt>
<trkpt lat="46.17098999" lon="7.18216515"><ele>534.32702634</ele><time>2010-05-15T14:32:40Z</time></trkpt>
<trkpt lat="46.17099380" lon="7.18214512"><ele>534.4199830248</ele><time>2010-05-15T14:32:41Z</time></trkpt>
<trkpt lat="46.17103577" lon="7.18194199"><ele>535.301025408</ele><time>2010-05-15T14:32:50Z</time></trkpt>
<trkpt lat="46.17106247" lon="7.18181515"><ele>535.931030244</ele><time>2010-05-15T14:32:57Z</time></trkpt>
<trkpt lat="46.17108154" lon="7.18161201"><ele>536.4949949784</ele><time>2010-05-15T14:33:07Z</time></trkpt>
<trkpt lat="46.17102814" lon="7.18147802"><ele>536.6849975448</ele><time>2010-05-15T14:33:14Z</time></trkpt>
<trkpt lat="46.17095947" lon="7.18131924"><ele>538.9710082128</ele><time>2010-05-15T14:33:23Z</time></trkpt>
<trkpt lat="46.17088699" lon="7.18116379"><ele>541.0739745936</ele><time>2010-05-15T14:33:32Z</time></trkpt>
<trkpt lat="46.17081833" lon="7.18097782"><ele>542.4190063968</ele><time>2010-05-15T14:33:42Z</time></trkpt>
<trkpt lat="46.17075348" lon="7.18074608"><ele>543.4780272912</ele><time>2010-05-15T14:33:54Z</time></trkpt>
<trkpt lat="46.17067337" lon="7.18051481"><ele>544.5609740712</ele><time>2010-05-15T14:34:06Z</time></trkpt>
<trkpt lat="46.17056656" lon="7.18032408"><ele>546.15899658</ele><time>2010-05-15T14:34:17Z</time></trkpt>
<trkpt lat="46.17050171" lon="7.18017387"><ele>549.0410156064</ele><time>2010-05-15T14:34:25Z</time></trkpt>
<trkpt lat="46.17048264" lon="7.18007183"><ele>549.4069825656</ele><time>2010-05-15T14:34:31Z</time></trkpt>
<trkpt lat="46.17056274" lon="7.18003988"><ele>549.1370239488</ele><time>2010-05-15T14:34:37Z</time></trkpt>
<trkpt lat="46.17058563" lon="7.18007421"><ele>549.1030274712</ele><time>2010-05-15T14:34:39Z</time></trkpt>
<trkpt lat="46.17066574" lon="7.18021488"><ele>548.7529905792</ele><time>2010-05-15T14:34:47Z</time></trkpt>
<trkpt lat="46.17073441" lon="7.18033218"><ele>548.4359741952</ele><time>2010-05-15T14:34:54Z</time></trkpt>
<trkpt lat="46.17079163" lon="7.18042898"><ele>549.4680175464</ele><time>2010-05-15T14:35:00Z</time></trkpt>
<trkpt lat="46.17086029" lon="7.18054390"><ele>550.4810182128</ele><time>2010-05-15T14:35:07Z</time></trkpt>
<trkpt lat="46.17094040" lon="7.18066406"><ele>551.8010253264</ele><time>2010-05-15T14:35:15Z</time></trkpt>
<trkpt lat="46.17106628" lon="7.18080282"><ele>553.3800048456</ele><time>2010-05-15T14:35:25Z</time></trkpt>
<trkpt lat="46.17120743" lon="7.18094397"><ele>555.1929930408</ele><time>2010-05-15T14:35:35Z</time></trkpt>
<trkpt lat="46.17129898" lon="7.18102980"><ele>556.5789796008</ele><time>2010-05-15T14:35:42Z</time></trkpt>
<trkpt lat="46.17142487" lon="7.18109512"><ele>558.3959960328</ele><time>2010-05-15T14:35:50Z</time></trkpt>
<trkpt lat="46.17155075" lon="7.18116188"><ele>560.0650024992</ele><time>2010-05-15T14:35:58Z</time></trkpt>
<trkpt lat="46.17166138" lon="7.18122005"><ele>561.3729858624</ele><time>2010-05-15T14:36:05Z</time></trkpt>
<trkpt lat="46.17176437" lon="7.18130779"><ele>562.6380003504</ele><time>2010-05-15T14:36:12Z</time></trkpt>
<trkpt lat="46.17184830" lon="7.18139076"><ele>562.9760131872</ele><time>2010-05-15T14:36:18Z</time></trkpt>
<trkpt lat="46.17193604" lon="7.18147707"><ele>563.4879759936</ele><time>2010-05-15T14:36:24Z</time></trkpt>
<trkpt lat="46.17201233" lon="7.18155384"><ele>565.0869750816</ele><time>2010-05-15T14:36:30Z</time></trkpt>
<trkpt lat="46.17212677" lon="7.18163013"><ele>565.78198248</ele><time>2010-05-15T14:36:37Z</time></trkpt>
<trkpt lat="46.17224884" lon="7.18170691"><ele>566.9550171672</ele><time>2010-05-15T14:36:44Z</time></trkpt>
<trkpt lat="46.17241287" lon="7.18175316"><ele>568.8460082544</ele><time>2010-05-15T14:36:53Z</time></trkpt>
<trkpt lat="46.17259598" lon="7.18180180"><ele>570.947998056</ele><time>2010-05-15T14:37:03Z</time></trkpt>
<trkpt lat="46.17271423" lon="7.18183422"><ele>572.29199232</ele><time>2010-05-15T14:37:11Z</time></trkpt>
<trkpt lat="46.17276382" lon="7.18184805"><ele>573.4019776032</ele><time>2010-05-15T14:37:17Z</time></trkpt>
<trkpt lat="46.17288971" lon="7.18194199"><ele>574.82299818</ele><time>2010-05-15T14:37:24Z</time></trkpt>
<trkpt lat="46.17301559" lon="7.18214989"><ele>576.458007864</ele><time>2010-05-15T14:37:33Z</time></trkpt>
<trkpt lat="46.17312622" lon="7.18241310"><ele>578.7410278344</ele><time>2010-05-15T14:37:44Z</time></trkpt>
<trkpt lat="46.17324448" lon="7.18268299"><ele>581.9699708304</ele><time>2010-05-15T14:37:56Z</time></trkpt>
<trkpt lat="46.17334747" lon="7.18290281"><ele>584.629028352</ele><time>2010-05-15T14:38:06Z</time></trkpt>
<trkpt lat="46.17346573" lon="7.18313503"><ele>587.497985784</ele><time>2010-05-15T14:38:17Z</time></trkpt>
<trkpt lat="46.17362976" lon="7.18339777"><ele>589.9810179528</ele><time>2010-05-15T14:38:29Z</time></trkpt>
<trkpt lat="46.17379379" lon="7.18360615"><ele>590.8870240656</ele><time>2010-05-15T14:38:37Z</time></trkpt>
<trkpt lat="46.17399979" lon="7.18385410"><ele>591.424987836</ele><time>2010-05-15T14:38:45Z</time></trkpt>
<trkpt lat="46.17416000" lon="7.18396807"><ele>591.6939698736</ele><time>2010-05-15T14:38:50Z</time></trkpt>
<trkpt lat="46.17438889" lon="7.18408108"><ele>592.481994612</ele><time>2010-05-15T14:38:57Z</time></trkpt>
<trkpt lat="46.17453384" lon="7.18420792"><ele>593.3339843736</ele><time>2010-05-15T14:39:03Z</time></trkpt>
<trkpt lat="46.17472839" lon="7.18442678"><ele>595.2080078544</ele><time>2010-05-15T14:39:12Z</time></trkpt>
<trkpt lat="46.17489624" lon="7.18468523"><ele>597.210998616</ele><time>2010-05-15T14:39:21Z</time></trkpt>
<trkpt lat="46.17506409" lon="7.18495703"><ele>598.9580076696</ele><time>2010-05-15T14:39:30Z</time></trkpt>
<trkpt lat="46.17528152" lon="7.18518686"><ele>600.3270263184</ele><time>2010-05-15T14:39:39Z</time></trkpt>
<trkpt lat="46.17548370" lon="7.18534899"><ele>601.1770019616</ele><time>2010-05-15T14:39:47Z</time></trkpt>
<trkpt lat="46.17565155" lon="7.18555498"><ele>602.9429930448</ele><time>2010-05-15T14:39:55Z</time></trkpt>
<trkpt lat="46.17574692" lon="7.18567419"><ele>603.4890135936</ele><time>2010-05-15T14:40:01Z</time></trkpt>
<trkpt lat="46.17589188" lon="7.18585110"><ele>604.30401618</ele><time>2010-05-15T14:40:12Z</time></trkpt>
<trkpt lat="46.17602921" lon="7.18601704"><ele>605.7369995472</ele><time>2010-05-15T14:40:22Z</time></trkpt>
<trkpt lat="46.17620087" lon="7.18620491"><ele>607.2810060096</ele><time>2010-05-15T14:40:34Z</time></trkpt>
<trkpt lat="46.17639542" lon="7.18641090"><ele>610.2700195896</ele><time>2010-05-15T14:40:47Z</time></trkpt>
<trkpt lat="46.17656326" lon="7.18659687"><ele>612.0770263896</ele><time>2010-05-15T14:40:58Z</time></trkpt>
<trkpt lat="46.17672729" lon="7.18674278"><ele>612.7810058808</ele><time>2010-05-15T14:41:07Z</time></trkpt>
<trkpt lat="46.17687225" lon="7.18686104"><ele>614.354980584</ele><time>2010-05-15T14:41:15Z</time></trkpt>
<trkpt lat="46.17708969" lon="7.18701220"><ele>614.8259886336</ele><time>2010-05-15T14:41:26Z</time></trkpt>
<trkpt lat="46.17726517" lon="7.18711281"><ele>615.4489745352</ele><time>2010-05-15T14:41:35Z</time></trkpt>
<trkpt lat="46.17748642" lon="7.18723822"><ele>617.7789916176</ele><time>2010-05-15T14:41:46Z</time></trkpt>
<trkpt lat="46.17765808" lon="7.18730688"><ele>619.9030151064</ele><time>2010-05-15T14:41:55Z</time></trkpt>
<trkpt lat="46.17779160" lon="7.18732977"><ele>621.4039917336</ele><time>2010-05-15T14:42:02Z</time></trkpt>
<trkpt lat="46.17781830" lon="7.18733311"><ele>621.85400394</ele><time>2010-05-15T14:42:04Z</time></trkpt>
<trkpt lat="46.17789078" lon="7.18732691"><ele>622.781005896</ele><time>2010-05-15T14:42:09Z</time></trkpt>
<trkpt lat="46.17808151" lon="7.18731403"><ele>625.130005008</ele><time>2010-05-15T14:42:22Z</time></trkpt>
<trkpt lat="46.17822647" lon="7.18737888"><ele>626.9790037992</ele><time>2010-05-15T14:42:32Z</time></trkpt>
<trkpt lat="46.17836380" lon="7.18748188"><ele>628.796020536</ele><time>2010-05-15T14:42:42Z</time></trkpt>
<trkpt lat="46.17851639" lon="7.18760490"><ele>630.3969727824</ele><time>2010-05-15T14:42:52Z</time></trkpt>
<trkpt lat="46.17868423" lon="7.18771887"><ele>631.7680052448</ele><time>2010-05-15T14:43:02Z</time></trkpt>
<trkpt lat="46.17891312" lon="7.18783379"><ele>633.9089966448</ele><time>2010-05-15T14:43:15Z</time></trkpt>
<trkpt lat="46.17911148" lon="7.18791485"><ele>636.3179931984</ele><time>2010-05-15T14:43:26Z</time></trkpt>
<trkpt lat="46.17927551" lon="7.18798304"><ele>637.9429932504</ele><time>2010-05-15T14:43:35Z</time></trkpt>
<trkpt lat="46.17942047" lon="7.18806887"><ele>638.919983016</ele><time>2010-05-15T14:43:41Z</time></trkpt>
<trkpt lat="46.17962646" lon="7.18825197"><ele>639.5469971544</ele><time>2010-05-15T14:43:48Z</time></trkpt>
<trkpt lat="46.17990875" lon="7.18857193"><ele>640.19598402</ele><time>2010-05-15T14:43:58Z</time></trkpt>
<trkpt lat="46.18009186" lon="7.18861485"><ele>640.2039795336</ele><time>2010-05-15T14:44:04Z</time></trkpt>
<trkpt lat="46.18017197" lon="7.18855906"><ele>640.4810180448</ele><time>2010-05-15T14:44:08Z</time></trkpt>
<trkpt lat="46.18016052" lon="7.18847513"><ele>641.1160276968</ele><time>2010-05-15T14:44:12Z</time></trkpt>
<trkpt lat="46.18013382" lon="7.18837595"><ele>642.2030030184</ele><time>2010-05-15T14:44:17Z</time></trkpt>
<trkpt lat="46.18008423" lon="7.18819523"><ele>644.6290284432</ele><time>2010-05-15T14:44:27Z</time></trkpt>
<trkpt lat="46.18006516" lon="7.18802214"><ele>645.9169922376</ele><time>2010-05-15T14:44:36Z</time></trkpt>
<trkpt lat="46.18006516" lon="7.18785810"><ele>647.309020848</ele><time>2010-05-15T14:44:45Z</time></trkpt>
<trkpt lat="46.18005753" lon="7.18768311"><ele>648.9470215344</ele><time>2010-05-15T14:44:55Z</time></trkpt>
<trkpt lat="46.18004990" lon="7.18758488"><ele>649.8070068096</ele><time>2010-05-15T14:45:01Z</time></trkpt>
<trkpt lat="46.18004227" lon="7.18745899"><ele>651.7470091272</ele><time>2010-05-15T14:45:09Z</time></trkpt>
<trkpt lat="46.18000412" lon="7.18727398"><ele>653.3720091792</ele><time>2010-05-15T14:45:21Z</time></trkpt>
<trkpt lat="46.17996979" lon="7.18718100"><ele>654.4990233336</ele><time>2010-05-15T14:45:28Z</time></trkpt>
<trkpt lat="46.17996216" lon="7.18716717"><ele>654.698974572</ele><time>2010-05-15T14:45:29Z</time></trkpt>
<trkpt lat="46.17991257" lon="7.18703222"><ele>656.448974628</ele><time>2010-05-15T14:45:38Z</time></trkpt>
<trkpt lat="46.17985535" lon="7.18687820"><ele>658.3569945864</ele><time>2010-05-15T14:45:49Z</time></trkpt>
<trkpt lat="46.17980576" lon="7.18674898"><ele>660.3070068408</ele><time>2010-05-15T14:45:58Z</time></trkpt>
<trkpt lat="46.17974854" lon="7.18657398"><ele>662.166992148</ele><time>2010-05-15T14:46:09Z</time></trkpt>
<trkpt lat="46.17970276" lon="7.18643618"><ele>663.8989867536</ele><time>2010-05-15T14:46:18Z</time></trkpt>
<trkpt lat="46.17967987" lon="7.18627119"><ele>665.7180176088</ele><time>2010-05-15T14:46:28Z</time></trkpt>
<trkpt lat="46.17966461" lon="7.18614006"><ele>667.3090208784</ele><time>2010-05-15T14:46:36Z</time></trkpt>
<trkpt lat="46.17963409" lon="7.18598604"><ele>668.8460084064</ele><time>2010-05-15T14:46:45Z</time></trkpt>
<trkpt lat="46.17958450" lon="7.18583012"><ele>670.7689818528</ele><time>2010-05-15T14:46:55Z</time></trkpt>
<trkpt lat="46.17951965" lon="7.18567514"><ele>672.541015596</ele><time>2010-05-15T14:47:06Z</time></trkpt>
<trkpt lat="46.17946243" lon="7.18554306"><ele>673.8410034456</ele><time>2010-05-15T14:47:15Z</time></trkpt>
<trkpt lat="46.17941284" lon="7.18542624"><ele>675.4439698104</ele><time>2010-05-15T14:47:23Z</time></trkpt>
<trkpt lat="46.17936325" lon="7.18533611"><ele>675.8549804184</ele><time>2010-05-15T14:47:33Z</time></trkpt>
<trkpt lat="46.17936325" lon="7.18533611"><ele>675.812011848</ele><time>2010-05-15T14:47:34Z</time></trkpt>
<trkpt lat="46.17950439" lon="7.18512821"><ele>675.9910278984</ele><time>2010-05-15T14:47:48Z</time></trkpt>
<trkpt lat="46.17956543" lon="7.18493986"><ele>677.5830077472</ele><time>2010-05-15T14:47:58Z</time></trkpt>
<trkpt lat="46.17966461" lon="7.18494606"><ele>678.1820068032</ele><time>2010-05-15T14:48:03Z</time></trkpt>
<trkpt lat="46.17975235" lon="7.18509102"><ele>679.0440061968</ele><time>2010-05-15T14:48:09Z</time></trkpt>
<trkpt lat="46.17990112" lon="7.18536377"><ele>680.19702162</ele><time>2010-05-15T14:48:18Z</time></trkpt>
<trkpt lat="46.18002701" lon="7.18559408"><ele>680.8829956608</ele><time>2010-05-15T14:48:25Z</time></trkpt>
<trkpt lat="46.18020630" lon="7.18591976"><ele>681.3300171696</ele><time>2010-05-15T14:48:34Z</time></trkpt>
<trkpt lat="46.18030930" lon="7.18609381"><ele>681.4010011272</ele><time>2010-05-15T14:48:39Z</time></trkpt>
<trkpt lat="46.18055725" lon="7.18675423"><ele>682.2890014848</ele><time>2010-05-15T14:48:43Z</time></trkpt>
<trkpt lat="46.18056488" lon="7.18675089"><ele>682.5280152816</ele><time>2010-05-15T14:48:44Z</time></trkpt>
<trkpt lat="46.18032074" lon="7.18611288"><ele>684.356994504</ele><time>2010-05-15T14:48:52Z</time></trkpt>
<trkpt lat="46.18056870" lon="7.18605900"><ele>686.2849730712</ele><time>2010-05-15T14:49:02Z</time></trkpt>
<trkpt lat="46.18065262" lon="7.18597412"><ele>688.325988852</ele><time>2010-05-15T14:49:11Z</time></trkpt>
<trkpt lat="46.18072128" lon="7.18590403"><ele>690.0659789712</ele><time>2010-05-15T14:49:19Z</time></trkpt>
<trkpt lat="46.18086243" lon="7.18463802"><ele>692.9619752112</ele><time>2010-05-15T14:49:29Z</time></trkpt>
<trkpt lat="46.18083572" lon="7.18462896"><ele>693.1760252784</ele><time>2010-05-15T14:49:31Z</time></trkpt>
<trkpt lat="46.18077469" lon="7.18460798"><ele>693.1229858112</ele><time>2010-05-15T14:49:35Z</time></trkpt>
<trkpt lat="46.18057632" lon="7.18447304"><ele>691.3289793408</ele><time>2010-05-15T14:49:42Z</time></trkpt>
<trkpt lat="46.18022156" lon="7.18426180"><ele>688.4890135704</ele><time>2010-05-15T14:49:48Z</time></trkpt>
<trkpt lat="46.17987823" lon="7.18406820"><ele>684.4899903264</ele><time>2010-05-15T14:49:53Z</time></trkpt>
<trkpt lat="46.17958069" lon="7.18385792"><ele>683.273986764</ele><time>2010-05-15T14:49:58Z</time></trkpt>
<trkpt lat="46.17940521" lon="7.18372583"><ele>684.10198968</ele><time>2010-05-15T14:50:02Z</time></trkpt>
<trkpt lat="46.17903519" lon="7.18357801"><ele>685.4600221176</ele><time>2010-05-15T14:50:08Z</time></trkpt>
<trkpt lat="46.17891693" lon="7.18356609"><ele>685.6560057744</ele><time>2010-05-15T14:50:13Z</time></trkpt>
<trkpt lat="46.17882156" lon="7.18355703"><ele>685.5490112208</ele><time>2010-05-15T14:50:17Z</time></trkpt>
<trkpt lat="46.17861938" lon="7.18431520"><ele>687.1290282792</ele><time>2010-05-15T14:50:21Z</time></trkpt>
<trkpt lat="46.17852783" lon="7.18423986"><ele>688.5839843736</ele><time>2010-05-15T14:50:29Z</time></trkpt>
<trkpt lat="46.17839813" lon="7.18413877"><ele>690.0780030264</ele><time>2010-05-15T14:50:40Z</time></trkpt>
<trkpt lat="46.17830658" lon="7.18406487"><ele>691.257995688</ele><time>2010-05-15T14:50:48Z</time></trkpt>
<trkpt lat="46.17818832" lon="7.18397522"><ele>692.8179931776</ele><time>2010-05-15T14:50:58Z</time></trkpt>
<trkpt lat="46.17807388" lon="7.18389702"><ele>694.85101314</ele><time>2010-05-15T14:51:07Z</time></trkpt>
<trkpt lat="46.17796707" lon="7.18383217"><ele>696.52801512</ele><time>2010-05-15T14:51:15Z</time></trkpt>
<trkpt lat="46.17795563" lon="7.18367481"><ele>697.7239991136</ele><time>2010-05-15T14:51:22Z</time></trkpt>
<trkpt lat="46.17803955" lon="7.18351221"><ele>698.8289795808</ele><time>2010-05-15T14:51:30Z</time></trkpt>
<trkpt lat="46.17812347" lon="7.18341112"><ele>700.3579712904</ele><time>2010-05-15T14:51:37Z</time></trkpt>
<trkpt lat="46.17821503" lon="7.18338490"><ele>702.0449829024</ele><time>2010-05-15T14:51:43Z</time></trkpt>
<trkpt lat="46.17827225" lon="7.18339300"><ele>702.9710082792</ele><time>2010-05-15T14:51:48Z</time></trkpt>
<trkpt lat="46.17841339" lon="7.18343496"><ele>704.9600218272</ele><time>2010-05-15T14:51:59Z</time></trkpt>
<trkpt lat="46.17855072" lon="7.18348503"><ele>706.84997568</ele><time>2010-05-15T14:52:09Z</time></trkpt>
<trkpt lat="46.17868042" lon="7.18353081"><ele>708.7009888944</ele><time>2010-05-15T14:52:18Z</time></trkpt>
<trkpt lat="46.17882156" lon="7.18355703"><ele>710.5009764552</ele><time>2010-05-15T14:52:27Z</time></trkpt>
<trkpt lat="46.17893982" lon="7.18356895"><ele>712.4130249552</ele><time>2010-05-15T14:52:35Z</time></trkpt>
<trkpt lat="46.17905045" lon="7.18357801"><ele>714.1519775352</ele><time>2010-05-15T14:52:43Z</time></trkpt>
<trkpt lat="46.17918015" lon="7.18359995"><ele>715.630004856</ele><time>2010-05-15T14:52:51Z</time></trkpt>
<trkpt lat="46.17932129" lon="7.18366480"><ele>716.494995252</ele><time>2010-05-15T14:52:58Z</time></trkpt>
<trkpt lat="46.17947769" lon="7.18378210"><ele>717.2160033096</ele><time>2010-05-15T14:53:04Z</time></trkpt>
<trkpt lat="46.17977524" lon="7.18400383"><ele>718.0269776592</ele><time>2010-05-15T14:53:14Z</time></trkpt>
<trkpt lat="46.17997742" lon="7.18412399"><ele>719.0910033696</ele><time>2010-05-15T14:53:21Z</time></trkpt>
<trkpt lat="46.18011093" lon="7.18419790"><ele>720.4019774304</ele><time>2010-05-15T14:53:27Z</time></trkpt>
<trkpt lat="46.18025589" lon="7.18428087"><ele>722.560973976</ele><time>2010-05-15T14:53:35Z</time></trkpt>
<trkpt lat="46.18046951" lon="7.18440008"><ele>724.9390260144</ele><time>2010-05-15T14:53:46Z</time></trkpt>
<trkpt lat="46.18063354" lon="7.18451214"><ele>726.2080077792</ele><time>2010-05-15T14:53:55Z</time></trkpt>
<trkpt lat="46.18075943" lon="7.18459702"><ele>726.9169920864</ele><time>2010-05-15T14:54:02Z</time></trkpt>
<trkpt lat="46.18092346" lon="7.18465090"><ele>727.5260010792</ele><time>2010-05-15T14:54:10Z</time></trkpt>
<trkpt lat="46.18108368" lon="7.18465090"><ele>728.4580078512</ele><time>2010-05-15T14:54:17Z</time></trkpt>
<trkpt lat="46.18118286" lon="7.18461800"><ele>729.9290162376</ele><time>2010-05-15T14:54:25Z</time></trkpt>
<trkpt lat="46.18127060" lon="7.18456602"><ele>731.0380249416</ele><time>2010-05-15T14:54:34Z</time></trkpt>
<trkpt lat="46.18132782" lon="7.18452215"><ele>731.6660156592</ele><time>2010-05-15T14:54:41Z</time></trkpt>
<trkpt lat="46.18132782" lon="7.18452215"><ele>731.6519774856</ele><time>2010-05-15T14:54:43Z</time></trkpt>
<trkpt lat="46.18137741" lon="7.18448400"><ele>732.0219726816</ele><time>2010-05-15T14:54:49Z</time></trkpt>
<trkpt lat="46.18145370" lon="7.18442297"><ele>732.9260253312</ele><time>2010-05-15T14:54:58Z</time></trkpt>
<trkpt lat="46.18153381" lon="7.18436193"><ele>733.9140016128</ele><time>2010-05-15T14:55:07Z</time></trkpt>
<trkpt lat="46.18162537" lon="7.18434286"><ele>734.7160035648</ele><time>2010-05-15T14:55:15Z</time></trkpt>
<trkpt lat="46.18166351" lon="7.18433905"><ele>735.0150144984</ele><time>2010-05-15T14:55:18Z</time></trkpt>
<trkpt lat="46.18171310" lon="7.18433380"><ele>735.5949705648</ele><time>2010-05-15T14:55:22Z</time></trkpt>
<trkpt lat="46.18182755" lon="7.18434000"><ele>737.528991792</ele><time>2010-05-15T14:55:31Z</time></trkpt>
<trkpt lat="46.18184662" lon="7.18434286"><ele>737.9990235672</ele><time>2010-05-15T14:55:33Z</time></trkpt>
<trkpt lat="46.18190384" lon="7.18433523"><ele>739.9509886752</ele><time>2010-05-15T14:55:40Z</time></trkpt>
<trkpt lat="46.18193054" lon="7.18430805"><ele>742.4609983872</ele><time>2010-05-15T14:55:49Z</time></trkpt>
<trkpt lat="46.18193054" lon="7.18427515"><ele>743.2719727368</ele><time>2010-05-15T14:55:52Z</time></trkpt>
<trkpt lat="46.18193054" lon="7.18419981"><ele>745.9310302584</ele><time>2010-05-15T14:55:59Z</time></trkpt>
<trkpt lat="46.18191147" lon="7.18413591"><ele>746.6129760624</ele><time>2010-05-15T14:56:05Z</time></trkpt>
<trkpt lat="46.18181992" lon="7.18410921"><ele>746.788024836</ele><time>2010-05-15T14:56:13Z</time></trkpt>
<trkpt lat="46.18163681" lon="7.18404818"><ele>746.6259766968</ele><time>2010-05-15T14:56:21Z</time></trkpt>
<trkpt lat="46.18140030" lon="7.18395090"><ele>745.7449949688</ele><time>2010-05-15T14:56:29Z</time></trkpt>
<trkpt lat="46.18135452" lon="7.18393183"><ele>745.6259766648</ele><time>2010-05-15T14:56:30Z</time></trkpt>
<trkpt lat="46.18087006" lon="7.18377018"><ele>744.9879760104</ele><time>2010-05-15T14:56:40Z</time></trkpt>
<trkpt lat="46.18062210" lon="7.18369389"><ele>744.502014168</ele><time>2010-05-15T14:56:46Z</time></trkpt>
<trkpt lat="46.18031693" lon="7.18350315"><ele>741.648010224</ele><time>2010-05-15T14:56:53Z</time></trkpt>
<trkpt lat="46.17989731" lon="7.18316793"><ele>740.0330201088</ele><time>2010-05-15T14:57:02Z</time></trkpt>
<trkpt lat="46.17948914" lon="7.18278599"><ele>740.4160156344</ele><time>2010-05-15T14:57:11Z</time></trkpt>
<trkpt lat="46.17915726" lon="7.18241787"><ele>740.5609742472</ele><time>2010-05-15T14:57:19Z</time></trkpt>
<trkpt lat="46.17873764" lon="7.18205786"><ele>740.2709960616</ele><time>2010-05-15T14:57:28Z</time></trkpt>
<trkpt lat="46.17839813" lon="7.18173218"><ele>741.1580201448</ele><time>2010-05-15T14:57:36Z</time></trkpt>
<trkpt lat="46.17807388" lon="7.18133879"><ele>740.1459960576</ele><time>2010-05-15T14:57:44Z</time></trkpt>
<trkpt lat="46.17789078" lon="7.18106890"><ele>740.3679809832</ele><time>2010-05-15T14:57:49Z</time></trkpt>
<trkpt lat="46.17757797" lon="7.18077421"><ele>737.4500123208</ele><time>2010-05-15T14:57:54Z</time></trkpt>
<trkpt lat="46.17750168" lon="7.18070698"><ele>736.7609863176</ele><time>2010-05-15T14:57:55Z</time></trkpt>
<trkpt lat="46.17701721" lon="7.18036985"><ele>730.3829957208</ele><time>2010-05-15T14:58:00Z</time></trkpt>
<trkpt lat="46.17663956" lon="7.18016911"><ele>725.494018656</ele><time>2010-05-15T14:58:04Z</time></trkpt>
<trkpt lat="46.17657089" lon="7.18025589"><ele>723.3809813784</ele><time>2010-05-15T14:58:07Z</time></trkpt>
<trkpt lat="46.17663574" lon="7.18027496"><ele>721.34301756</ele><time>2010-05-15T14:58:08Z</time></trkpt>
<trkpt lat="46.17668915" lon="7.18033123"><ele>721.7449951152</ele><time>2010-05-15T14:58:09Z</time></trkpt>
<trkpt lat="46.17706680" lon="7.18086815"><ele>715.7789917056</ele><time>2010-05-15T14:58:15Z</time></trkpt>
<trkpt lat="46.17723846" lon="7.18107605"><ele>713.5360108728</ele><time>2010-05-15T14:58:17Z</time></trkpt>
<trkpt lat="46.17745590" lon="7.18164682"><ele>709.0570068768</ele><time>2010-05-15T14:58:21Z</time></trkpt>
<trkpt lat="46.17741013" lon="7.18190718"><ele>707.213989176</ele><time>2010-05-15T14:58:23Z</time></trkpt>
<trkpt lat="46.17723465" lon="7.18213415"><ele>705.2030029008</ele><time>2010-05-15T14:58:25Z</time></trkpt>
<trkpt lat="46.17702103" lon="7.18247223"><ele>703.8619996392</ele><time>2010-05-15T14:58:28Z</time></trkpt>
<trkpt lat="46.17746735" lon="7.18171120"><ele>703.6550291616</ele><time>2010-05-15T14:58:32Z</time></trkpt>
<trkpt lat="46.17702103" lon="7.18246794"><ele>703.4920044432</ele><time>2010-05-15T14:58:34Z</time></trkpt>
<trkpt lat="46.17710876" lon="7.18230486"><ele>700.5230101272</ele><time>2010-05-15T14:58:39Z</time></trkpt>
<trkpt lat="46.17746735" lon="7.18171120"><ele>698.221008432</ele><time>2010-05-15T14:58:41Z</time></trkpt>
<trkpt lat="46.17746735" lon="7.18171120"><ele>697.0939942776</ele><time>2010-05-15T14:58:42Z</time></trkpt>
<trkpt lat="46.17746735" lon="7.18171120"><ele>694.7979736728</ele><time>2010-05-15T14:58:44Z</time></trkpt>
<trkpt lat="46.17562485" lon="7.18209791"><ele>691.1350098024</ele><time>2010-05-15T14:58:48Z</time></trkpt>
<trkpt lat="46.17562485" lon="7.18209791"><ele>687.8129882016</ele><time>2010-05-15T14:58:52Z</time></trkpt>
<trkpt lat="46.17704010" lon="7.18239784"><ele>686.6989746816</ele><time>2010-05-15T14:58:53Z</time></trkpt>
<trkpt lat="46.17701721" lon="7.18248415"><ele>686.247985896</ele><time>2010-05-15T14:58:59Z</time></trkpt>
<trkpt lat="46.17571640" lon="7.18284893"><ele>689.0520020304</ele><time>2010-05-15T14:59:07Z</time></trkpt>
<trkpt lat="46.17571259" lon="7.18292379"><ele>689.2979734968</ele><time>2010-05-15T14:59:08Z</time></trkpt>
<trkpt lat="46.17569733" lon="7.18319082"><ele>690.6599732112</ele><time>2010-05-15T14:59:12Z</time></trkpt>
<trkpt lat="46.17616272" lon="7.18407393"><ele>689.2800293112</ele><time>2010-05-15T14:59:17Z</time></trkpt>
<trkpt lat="46.17622757" lon="7.18413305"><ele>688.6420286568</ele><time>2010-05-15T14:59:18Z</time></trkpt>
<trkpt lat="46.17650223" lon="7.18437195"><ele>685.0209961224</ele><time>2010-05-15T14:59:22Z</time></trkpt>
<trkpt lat="46.17695236" lon="7.18402004"><ele>682.3560181656</ele><time>2010-05-15T14:59:26Z</time></trkpt>
<trkpt lat="46.17693329" lon="7.18402719"><ele>678.7509766584</ele><time>2010-05-15T14:59:30Z</time></trkpt>
<trkpt lat="46.17681122" lon="7.18407106"><ele>674.7730102176</ele><time>2010-05-15T14:59:32Z</time></trkpt>
<trkpt lat="46.17648697" lon="7.18426609"><ele>664.3350220512</ele><time>2010-05-15T14:59:37Z</time></trkpt>
<trkpt lat="46.17643738" lon="7.18432903"><ele>660.0540161352</ele><time>2010-05-15T14:59:40Z</time></trkpt>
<trkpt lat="46.17626190" lon="7.18416500"><ele>654.741027828</ele><time>2010-05-15T14:59:43Z</time></trkpt>
<trkpt lat="46.17595673" lon="7.18388224"><ele>641.8400267568</ele><time>2010-05-15T14:59:48Z</time></trkpt>
<trkpt lat="46.17553329" lon="7.18427420"><ele>634.1680297056</ele><time>2010-05-15T14:59:51Z</time></trkpt>
<trkpt lat="46.17529297" lon="7.18403912"><ele>627.7780150536</ele><time>2010-05-15T14:59:55Z</time></trkpt>
<trkpt lat="46.17513657" lon="7.18393517"><ele>624.0280152384</ele><time>2010-05-15T14:59:57Z</time></trkpt>
<trkpt lat="46.17495346" lon="7.18383503"><ele>620.4819945936</ele><time>2010-05-15T14:59:59Z</time></trkpt>
<trkpt lat="46.17472458" lon="7.18350220"><ele>615.9060059808</ele><time>2010-05-15T15:00:03Z</time></trkpt>
<trkpt lat="46.17440033" lon="7.18282890"><ele>610.1179810824</ele><time>2010-05-15T15:00:09Z</time></trkpt>
<trkpt lat="46.17428207" lon="7.18222284"><ele>605.0339966352</ele><time>2010-05-15T15:00:13Z</time></trkpt>
<trkpt lat="46.17411423" lon="7.18156099"><ele>599.0430298008</ele><time>2010-05-15T15:00:17Z</time></trkpt>
<trkpt lat="46.17408752" lon="7.18138123"><ele>597.5189819472</ele><time>2010-05-15T15:00:18Z</time></trkpt>
<trkpt lat="46.17375565" lon="7.18077421"><ele>593.2089843696</ele><time>2010-05-15T15:00:22Z</time></trkpt>
<trkpt lat="46.17333984" lon="7.18016481"><ele>590.9060057904</ele><time>2010-05-15T15:00:27Z</time></trkpt>
<trkpt lat="46.17313004" lon="7.18016815"><ele>588.7369996128</ele><time>2010-05-15T15:00:30Z</time></trkpt>
<trkpt lat="46.17300034" lon="7.18034887"><ele>586.7919921744</ele><time>2010-05-15T15:00:32Z</time></trkpt>
<trkpt lat="46.17285156" lon="7.18089914"><ele>582.2890013328</ele><time>2010-05-15T15:00:36Z</time></trkpt>
<trkpt lat="46.17281342" lon="7.18137503"><ele>578.2249755264</ele><time>2010-05-15T15:00:39Z</time></trkpt>
<trkpt lat="46.17281342" lon="7.18186092"><ele>572.4639891312</ele><time>2010-05-15T15:00:43Z</time></trkpt>
<trkpt lat="46.17281342" lon="7.18186092"><ele>569.104003776</ele><time>2010-05-15T15:00:45Z</time></trkpt>
<trkpt lat="46.17250824" lon="7.18214607"><ele>564.2310180432</ele><time>2010-05-15T15:00:48Z</time></trkpt>
<trkpt lat="46.17237091" lon="7.18213081"><ele>561.4739990208</ele><time>2010-05-15T15:00:51Z</time></trkpt>
<trkpt lat="46.17206955" lon="7.18186998"><ele>555.4669798944</ele><time>2010-05-15T15:00:55Z</time></trkpt>
<trkpt lat="46.17160034" lon="7.18151712"><ele>546.9990235512</ele><time>2010-05-15T15:01:00Z</time></trkpt>
<trkpt lat="46.17150116" lon="7.18149710"><ele>545.2410279816</ele><time>2010-05-15T15:01:01Z</time></trkpt>
<trkpt lat="46.17124176" lon="7.18156910"><ele>539.2369995528</ele><time>2010-05-15T15:01:05Z</time></trkpt>
<trkpt lat="46.17107391" lon="7.18173313"><ele>534.1250000232</ele><time>2010-05-15T15:01:08Z</time></trkpt>
<trkpt lat="46.17100525" lon="7.18236685"><ele>530.1339722928</ele><time>2010-05-15T15:01:11Z</time></trkpt>
<trkpt lat="46.17110443" lon="7.18260193"><ele>528.3359985456</ele><time>2010-05-15T15:01:13Z</time></trkpt>
<trkpt lat="46.17144012" lon="7.18327808"><ele>524.3790282528</ele><time>2010-05-15T15:01:18Z</time></trkpt>
<trkpt lat="46.17175293" lon="7.18374681"><ele>520.5050050128</ele><time>2010-05-15T15:01:22Z</time></trkpt>
<trkpt lat="46.17192078" lon="7.18406820"><ele>519.416992152</ele><time>2010-05-15T15:01:25Z</time></trkpt>
<trkpt lat="46.17204666" lon="7.18394089"><ele>518.8060303056</ele><time>2010-05-15T15:01:28Z</time></trkpt>
<trkpt lat="46.17210388" lon="7.18389702"><ele>518.796996948</ele><time>2010-05-15T15:01:29Z</time></trkpt>
<trkpt lat="46.17246628" lon="7.18352222"><ele>521.1790162632</ele><time>2010-05-15T15:01:36Z</time></trkpt>
<trkpt lat="46.17259979" lon="7.18349314"><ele>522.8920288392</ele><time>2010-05-15T15:01:40Z</time></trkpt>
<trkpt lat="46.17264938" lon="7.18357086"><ele>523.203002868</ele><time>2010-05-15T15:01:42Z</time></trkpt>
<trkpt lat="46.17279434" lon="7.18378782"><ele>525.38500968</ele><time>2010-05-15T15:01:48Z</time></trkpt>
<trkpt lat="46.17290878" lon="7.18402195"><ele>527.7689818488</ele><time>2010-05-15T15:01:56Z</time></trkpt>
<trkpt lat="46.17300034" lon="7.18431807"><ele>529.9299928176</ele><time>2010-05-15T15:02:06Z</time></trkpt>
<trkpt lat="46.17309952" lon="7.18457890"><ele>531.6699829368</ele><time>2010-05-15T15:02:15Z</time></trkpt>
<trkpt lat="46.17322159" lon="7.18471193"><ele>532.9349974248</ele><time>2010-05-15T15:02:23Z</time></trkpt>
<trkpt lat="46.17340469" lon="7.18488121"><ele>534.5390013288</ele><time>2010-05-15T15:02:35Z</time></trkpt>
<trkpt lat="46.17357635" lon="7.18504810"><ele>536.5469972112</ele><time>2010-05-15T15:02:46Z</time></trkpt>
<trkpt lat="46.17375183" lon="7.18522692"><ele>538.2760011192</ele><time>2010-05-15T15:02:58Z</time></trkpt>
<trkpt lat="46.17390442" lon="7.18537807"><ele>539.4479979624</ele><time>2010-05-15T15:03:08Z</time></trkpt>
<trkpt lat="46.17407227" lon="7.18552303"><ele>541.0170288096</ele><time>2010-05-15T15:03:19Z</time></trkpt>
<trkpt lat="46.17424393" lon="7.18567514"><ele>542.554992612</ele><time>2010-05-15T15:03:30Z</time></trkpt>
<trkpt lat="46.17442322" lon="7.18580389"><ele>544.2399901056</ele><time>2010-05-15T15:03:41Z</time></trkpt>
<trkpt lat="46.17452621" lon="7.18587399"><ele>545.9010010584</ele><time>2010-05-15T15:03:48Z</time></trkpt>
<trkpt lat="46.17465210" lon="7.18595695"><ele>547.3439940576</ele><time>2010-05-15T15:03:56Z</time></trkpt>
<trkpt lat="46.17474365" lon="7.18605614"><ele>547.7410277568</ele><time>2010-05-15T15:04:02Z</time></trkpt>
<trkpt lat="46.17493820" lon="7.18629408"><ele>547.8469847712</ele><time>2010-05-15T15:04:10Z</time></trkpt>
<trkpt lat="46.17514801" lon="7.18659306"><ele>548.148010128</ele><time>2010-05-15T15:04:18Z</time></trkpt>
<trkpt lat="46.17538452" lon="7.18693399"><ele>548.5800171888</ele><time>2010-05-15T15:04:26Z</time></trkpt>
<trkpt lat="46.17550659" lon="7.18714523"><ele>549.8419800192</ele><time>2010-05-15T15:04:32Z</time></trkpt>
<trkpt lat="46.17563629" lon="7.18740702"><ele>552.0949707888</ele><time>2010-05-15T15:04:40Z</time></trkpt>
<trkpt lat="46.17582321" lon="7.18779993"><ele>555.356018064</ele><time>2010-05-15T15:04:51Z</time></trkpt>
<trkpt lat="46.17599869" lon="7.18814278"><ele>558.3740233056</ele><time>2010-05-15T15:05:01Z</time></trkpt>
<trkpt lat="46.17613983" lon="7.18832779"><ele>559.4829710496</ele><time>2010-05-15T15:05:08Z</time></trkpt>
<trkpt lat="46.17619324" lon="7.18834686"><ele>559.682983248</ele><time>2010-05-15T15:05:10Z</time></trkpt>
<trkpt lat="46.17629242" lon="7.18831491"><ele>559.330017228</ele><time>2010-05-15T15:05:14Z</time></trkpt>
<trkpt lat="46.17636490" lon="7.18824291"><ele>558.741027804</ele><time>2010-05-15T15:05:16Z</time></trkpt>
<trkpt lat="46.17667007" lon="7.18820095"><ele>556.559020992</ele><time>2010-05-15T15:05:21Z</time></trkpt>
<trkpt lat="46.17694473" lon="7.18839788"><ele>554.1459962016</ele><time>2010-05-15T15:05:25Z</time></trkpt>
<trkpt lat="46.17708969" lon="7.18855286"><ele>552.424011228</ele><time>2010-05-15T15:05:27Z</time></trkpt>
<trkpt lat="46.17755890" lon="7.18918610"><ele>545.7990113208</ele><time>2010-05-15T15:05:33Z</time></trkpt>
<trkpt lat="46.17783737" lon="7.18956423"><ele>541.2299803776</ele><time>2010-05-15T15:05:36Z</time></trkpt>
<trkpt lat="46.17832947" lon="7.19032001"><ele>532.5419922672</ele><time>2010-05-15T15:05:41Z</time></trkpt>
<trkpt lat="46.17844772" lon="7.19045877"><ele>531.0269774664</ele><time>2010-05-15T15:05:42Z</time></trkpt>
<trkpt lat="46.17867661" lon="7.19105101"><ele>524.9600218584</ele><time>2010-05-15T15:05:45Z</time></trkpt>
<trkpt lat="46.17897034" lon="7.19214296"><ele>515.46502698</ele><time>2010-05-15T15:05:50Z</time></trkpt>
<trkpt lat="46.17925644" lon="7.19260502"><ele>509.9719847784</ele><time>2010-05-15T15:05:53Z</time></trkpt>
<trkpt lat="46.17954254" lon="7.19301319"><ele>504.3940124952</ele><time>2010-05-15T15:05:56Z</time></trkpt>
<trkpt lat="46.17956161" lon="7.19327593"><ele>502.1180114592</ele><time>2010-05-15T15:05:59Z</time></trkpt>
<trkpt lat="46.17946243" lon="7.19344807"><ele>501.1470030888</ele><time>2010-05-15T15:06:01Z</time></trkpt>
<trkpt lat="46.17935181" lon="7.19362593"><ele>500.2399902216</ele><time>2010-05-15T15:06:03Z</time></trkpt>
<trkpt lat="46.17937469" lon="7.19382906"><ele>498.5039978592</ele><time>2010-05-15T15:06:06Z</time></trkpt>
<trkpt lat="46.17948532" lon="7.19396400"><ele>498.2439879144</ele><time>2010-05-15T15:06:09Z</time></trkpt>
<trkpt lat="46.17950058" lon="7.19396400"><ele>497.90899656</ele><time>2010-05-15T15:06:11Z</time></trkpt>
<trkpt lat="46.17958450" lon="7.19323301"><ele>497.950988856</ele><time>2010-05-15T15:06:19Z</time></trkpt>
<trkpt lat="46.17959213" lon="7.19312716"><ele>498.497985984</ele><time>2010-05-15T15:06:27Z</time></trkpt>
<trkpt lat="46.18038559" lon="7.19304085"><ele>499.382995644</ele><time>2010-05-15T15:06:35Z</time></trkpt>
<trkpt lat="46.18043137" lon="7.19265604"><ele>499.6140136224</ele><time>2010-05-15T15:06:42Z</time></trkpt>
<trkpt lat="46.18043137" lon="7.19243288"><ele>500.6650085232</ele><time>2010-05-15T15:06:50Z</time></trkpt>
<trkpt lat="46.18044281" lon="7.19232082"><ele>501.6759947664</ele><time>2010-05-15T15:06:57Z</time></trkpt>
<trkpt lat="46.18045807" lon="7.19224977"><ele>503.3540038056</ele><time>2010-05-15T15:07:02Z</time></trkpt>
<trkpt lat="46.18050385" lon="7.19211578"><ele>504.9440003208</ele><time>2010-05-15T15:07:10Z</time></trkpt>
<trkpt lat="46.18054581" lon="7.19198418"><ele>506.860992372</ele><time>2010-05-15T15:07:18Z</time></trkpt>
<trkpt lat="46.18058777" lon="7.19184923"><ele>510.4379883168</ele><time>2010-05-15T15:07:26Z</time></trkpt>
<trkpt lat="46.18064880" lon="7.19164991"><ele>515.9500122432</ele><time>2010-05-15T15:07:36Z</time></trkpt>
<trkpt lat="46.18070602" lon="7.19146776"><ele>518.5029908304</ele><time>2010-05-15T15:07:45Z</time></trkpt>
<trkpt lat="46.18070984" lon="7.19145393"><ele>518.9429931</ele><time>2010-05-15T15:07:47Z</time></trkpt>
<trkpt lat="46.18072891" lon="7.19138908"><ele>518.828979612</ele><time>2010-05-15T15:07:59Z</time></trkpt>
<trkpt lat="46.18072891" lon="7.19138908"><ele>519.2490235776</ele><time>2010-05-15T15:08:01Z</time></trkpt>
<trkpt lat="46.18074799" lon="7.19136381"><ele>522.9030150504</ele><time>2010-05-15T15:08:07Z</time></trkpt>
<trkpt lat="46.18074799" lon="7.19136381"><ele>523.1599730328</ele><time>2010-05-15T15:08:14Z</time></trkpt>
<trkpt lat="46.18080521" lon="7.19129515"><ele>522.5770262688</ele><time>2010-05-15T15:08:20Z</time></trkpt>
<trkpt lat="46.18084717" lon="7.19126797"><ele>519.442993116</ele><time>2010-05-15T15:08:26Z</time></trkpt>
<trkpt lat="46.18084717" lon="7.19126797"><ele>523.6519775352</ele><time>2010-05-15T15:08:35Z</time></trkpt>
<trkpt lat="46.18089676" lon="7.19126701"><ele>525.2490234648</ele><time>2010-05-15T15:08:42Z</time></trkpt>
<trkpt lat="46.18090057" lon="7.19127083"><ele>528.3309937296</ele><time>2010-05-15T15:08:48Z</time></trkpt>
<trkpt lat="46.18090057" lon="7.19127083"><ele>529.7310181584</ele><time>2010-05-15T15:08:54Z</time></trkpt>
<trkpt lat="46.18092346" lon="7.19128084"><ele>530.343017544</ele><time>2010-05-15T15:08:57Z</time></trkpt>
<trkpt lat="46.18112183" lon="7.19090414"><ele>528.7379761008</ele><time>2010-05-15T15:09:09Z</time></trkpt>
<trkpt lat="46.18121338" lon="7.19070101"><ele>529.1010133224</ele><time>2010-05-15T15:09:16Z</time></trkpt>
<trkpt lat="46.18135452" lon="7.19048691"><ele>529.7249754984</ele><time>2010-05-15T15:09:23Z</time></trkpt>
<trkpt lat="46.18151855" lon="7.19032288"><ele>530.3040162504</ele><time>2010-05-15T15:09:31Z</time></trkpt>
<trkpt lat="46.18163300" lon="7.19004202"><ele>530.572021404</ele><time>2010-05-15T15:09:39Z</time></trkpt>
<trkpt lat="46.18157196" lon="7.18975496"><ele>530.9539793904</ele><time>2010-05-15T15:09:46Z</time></trkpt>
<trkpt lat="46.18153763" lon="7.18953180"><ele>531.286010832</ele><time>2010-05-15T15:09:51Z</time></trkpt>
<trkpt lat="46.18152237" lon="7.18930101"><ele>532.5209961192</ele><time>2010-05-15T15:09:58Z</time></trkpt>
<trkpt lat="46.18155289" lon="7.18913507"><ele>533.2659913272</ele><time>2010-05-15T15:10:05Z</time></trkpt>
<trkpt lat="46.18163300" lon="7.18888712"><ele>535.2299804904</ele><time>2010-05-15T15:10:16Z</time></trkpt>
<trkpt lat="46.18167114" lon="7.18877792"><ele>537.0490113456</ele><time>2010-05-15T15:10:23Z</time></trkpt>
<trkpt lat="46.18167114" lon="7.18877792"><ele>537.2479857</ele><time>2010-05-15T15:10:24Z</time></trkpt>
<trkpt lat="46.18170547" lon="7.18868399"><ele>538.372985736</ele><time>2010-05-15T15:10:30Z</time></trkpt>
<trkpt lat="46.18175125" lon="7.18857479"><ele>539.7719726256</ele><time>2010-05-15T15:10:38Z</time></trkpt>
<trkpt lat="46.18180466" lon="7.18845081"><ele>541.1469726696</ele><time>2010-05-15T15:10:47Z</time></trkpt>
<trkpt lat="46.18185425" lon="7.18833685"><ele>542.9890137912</ele><time>2010-05-15T15:10:56Z</time></trkpt>
<trkpt lat="46.18191147" lon="7.18819094"><ele>545.4990235032</ele><time>2010-05-15T15:11:10Z</time></trkpt>
<trkpt lat="46.18194962" lon="7.18807793"><ele>547.3870238928</ele><time>2010-05-15T15:11:18Z</time></trkpt>
<trkpt lat="46.18194962" lon="7.18807793"><ele>549.721008252</ele><time>2010-05-15T15:11:25Z</time></trkpt>
<trkpt lat="46.18194962" lon="7.18807793"><ele>554.2290039096</ele><time>2010-05-15T15:11:36Z</time></trkpt>
<trkpt lat="46.18194962" lon="7.18807793"><ele>556.4589844128</ele><time>2010-05-15T15:11:43Z</time></trkpt>
<trkpt lat="46.18188858" lon="7.18825579"><ele>557.616027768</ele><time>2010-05-15T15:11:52Z</time></trkpt>
<trkpt lat="46.18214035" lon="7.18783522"><ele>558.552978396</ele><time>2010-05-15T15:12:02Z</time></trkpt>
<trkpt lat="46.18216705" lon="7.18788481"><ele>559.465026864</ele><time>2010-05-15T15:12:07Z</time></trkpt>
<trkpt lat="46.18220901" lon="7.18795776"><ele>560.8319701296</ele><time>2010-05-15T15:12:15Z</time></trkpt>
<trkpt lat="46.18225479" lon="7.18805218"><ele>562.479980448</ele><time>2010-05-15T15:12:23Z</time></trkpt>
<trkpt lat="46.18231583" lon="7.18820477"><ele>568.3049928264</ele><time>2010-05-15T15:12:30Z</time></trkpt>
<trkpt lat="46.18232727" lon="7.18822384"><ele>567.65100084</ele><time>2010-05-15T15:12:34Z</time></trkpt>
<trkpt lat="46.18234634" lon="7.18826103"><ele>567.6970213728</ele><time>2010-05-15T15:12:38Z</time></trkpt>
<trkpt lat="46.18241119" lon="7.18837976"><ele>567.9799803192</ele><time>2010-05-15T15:12:45Z</time></trkpt>
<trkpt lat="46.18252563" lon="7.18857622"><ele>568.6110229992</ele><time>2010-05-15T15:12:55Z</time></trkpt>
<trkpt lat="46.18266296" lon="7.18879509"><ele>571.1480102544</ele><time>2010-05-15T15:13:07Z</time></trkpt>
<trkpt lat="46.18272400" lon="7.18897915"><ele>573.3670045464</ele><time>2010-05-15T15:13:17Z</time></trkpt>
<trkpt lat="46.18277359" lon="7.18917322"><ele>576.8179931232</ele><time>2010-05-15T15:13:25Z</time></trkpt>
<trkpt lat="46.18283463" lon="7.18937492"><ele>577.0910033976</ele><time>2010-05-15T15:13:33Z</time></trkpt>
<trkpt lat="46.18292236" lon="7.18951893"><ele>577.9340210664</ele><time>2010-05-15T15:13:40Z</time></trkpt>
<trkpt lat="46.18302917" lon="7.18966198"><ele>580.088012796</ele><time>2010-05-15T15:13:48Z</time></trkpt>
<trkpt lat="46.18319321" lon="7.18983793"><ele>582.4949952312</ele><time>2010-05-15T15:13:59Z</time></trkpt>
<trkpt lat="46.18321991" lon="7.18986511"><ele>582.4710083856</ele><time>2010-05-15T15:14:07Z</time></trkpt>
<trkpt lat="46.18321991" lon="7.18986511"><ele>582.6320189856</ele><time>2010-05-15T15:14:08Z</time></trkpt>
<trkpt lat="46.18321991" lon="7.18986511"><ele>577.0390014696</ele><time>2010-05-15T15:14:12Z</time></trkpt>
<trkpt lat="46.18262863" lon="7.19020319"><ele>567.2000123592</ele><time>2010-05-15T15:14:17Z</time></trkpt>
<trkpt lat="46.18264008" lon="7.19041300"><ele>560.2000121352</ele><time>2010-05-15T15:14:22Z</time></trkpt>
<trkpt lat="46.18262482" lon="7.19052410"><ele>558.9329835288</ele><time>2010-05-15T15:14:25Z</time></trkpt>
<trkpt lat="46.18260193" lon="7.19067621"><ele>557.1950072232</ele><time>2010-05-15T15:14:29Z</time></trkpt>
<trkpt lat="46.18257904" lon="7.19092083"><ele>558.198974532</ele><time>2010-05-15T15:14:34Z</time></trkpt>
<trkpt lat="46.18257523" lon="7.19114923"><ele>558.0560303424</ele><time>2010-05-15T15:14:39Z</time></trkpt>
<trkpt lat="46.18267059" lon="7.19149590"><ele>560.245971708</ele><time>2010-05-15T15:14:48Z</time></trkpt>
<trkpt lat="46.18270493" lon="7.19168901"><ele>560.6770018848</ele><time>2010-05-15T15:14:54Z</time></trkpt>
<trkpt lat="46.18255615" lon="7.19171906"><ele>555.7239991416</ele><time>2010-05-15T15:14:58Z</time></trkpt>
<trkpt lat="46.18241119" lon="7.19173002"><ele>552.5729980776</ele><time>2010-05-15T15:15:00Z</time></trkpt>
<trkpt lat="46.18229675" lon="7.19173193"><ele>549.4940185104</ele><time>2010-05-15T15:15:02Z</time></trkpt>
<trkpt lat="46.18214798" lon="7.19163418"><ele>546.2329712352</ele><time>2010-05-15T15:15:04Z</time></trkpt>
<trkpt lat="46.18191528" lon="7.19150209"><ele>542.3720092848</ele><time>2010-05-15T15:15:07Z</time></trkpt>
<trkpt lat="46.18158722" lon="7.19142103"><ele>537.0549927408</ele><time>2010-05-15T15:15:11Z</time></trkpt>
<trkpt lat="46.18143845" lon="7.19144678"><ele>533.9699708184</ele><time>2010-05-15T15:15:15Z</time></trkpt>
<trkpt lat="46.18135834" lon="7.19149017"><ele>529.9869995616</ele><time>2010-05-15T15:15:17Z</time></trkpt>
<trkpt lat="46.18100739" lon="7.19136620"><ele>525.604003908</ele><time>2010-05-15T15:15:20Z</time></trkpt>
<trkpt lat="46.18098068" lon="7.19117689"><ele>523.2420044664</ele><time>2010-05-15T15:15:23Z</time></trkpt>
<trkpt lat="46.18096161" lon="7.19119883"><ele>523.3720092864</ele><time>2010-05-15T15:15:25Z</time></trkpt>
<trkpt lat="46.18104553" lon="7.19142103"><ele>526.2899779488</ele><time>2010-05-15T15:15:31Z</time></trkpt>
<trkpt lat="46.18115997" lon="7.19150019"><ele>529.6749876888</ele><time>2010-05-15T15:15:39Z</time></trkpt>
<trkpt lat="46.18122101" lon="7.19151211"><ele>530.8189697544</ele><time>2010-05-15T15:15:43Z</time></trkpt>
<trkpt lat="46.18120575" lon="7.19166899"><ele>531.9290159976</ele><time>2010-05-15T15:15:49Z</time></trkpt>
<trkpt lat="46.18117142" lon="7.19174004"><ele>532.7919922752</ele><time>2010-05-15T15:15:52Z</time></trkpt>
<trkpt lat="46.18105316" lon="7.19203806"><ele>533.8099974528</ele><time>2010-05-15T15:16:01Z</time></trkpt>
<trkpt lat="46.18095779" lon="7.19234324"><ele>533.718017652</ele><time>2010-05-15T15:16:08Z</time></trkpt>
<trkpt lat="46.18094254" lon="7.19240284"><ele>533.353027272</ele><time>2010-05-15T15:16:09Z</time></trkpt>
<trkpt lat="46.18090057" lon="7.19292402"><ele>530.8540037712</ele><time>2010-05-15T15:16:15Z</time></trkpt>
<trkpt lat="46.18078613" lon="7.19338083"><ele>527.6959837728</ele><time>2010-05-15T15:16:20Z</time></trkpt>
<trkpt lat="46.18057251" lon="7.19391584"><ele>521.8839720288</ele><time>2010-05-15T15:16:24Z</time></trkpt>
<trkpt lat="46.18044662" lon="7.19410181"><ele>517.1920164648</ele><time>2010-05-15T15:16:27Z</time></trkpt>
<trkpt lat="46.18057632" lon="7.19433308"><ele>515.7219849624</ele><time>2010-05-15T15:16:32Z</time></trkpt>
<trkpt lat="46.18062210" lon="7.19439697"><ele>516.0750122472</ele><time>2010-05-15T15:16:34Z</time></trkpt>
<trkpt lat="46.18075180" lon="7.19456387"><ele>516.5989991088</ele><time>2010-05-15T15:16:40Z</time></trkpt>
<trkpt lat="46.18081665" lon="7.19460678"><ele>518.2800293256</ele><time>2010-05-15T15:16:50Z</time></trkpt>
<trkpt lat="46.18052292" lon="7.19577312"><ele>519.1420287192</ele><time>2010-05-15T15:16:58Z</time></trkpt>
<trkpt lat="46.18060303" lon="7.19595909"><ele>517.5380248152</ele><time>2010-05-15T15:17:03Z</time></trkpt>
<trkpt lat="46.18061829" lon="7.19606495"><ele>513.9089964624</ele><time>2010-05-15T15:17:07Z</time></trkpt>
<trkpt lat="46.18038559" lon="7.19546795"><ele>511.5360108096</ele><time>2010-05-15T15:17:09Z</time></trkpt>
<trkpt lat="46.18059158" lon="7.19593477"><ele>504.5549926152</ele><time>2010-05-15T15:17:13Z</time></trkpt>
<trkpt lat="46.18053436" lon="7.19580507"><ele>504.0239868192</ele><time>2010-05-15T15:17:15Z</time></trkpt>
<trkpt lat="46.18048859" lon="7.19569588"><ele>503.7650147184</ele><time>2010-05-15T15:17:17Z</time></trkpt>
<trkpt lat="46.18043900" lon="7.19558096"><ele>503.4999999576</ele><time>2010-05-15T15:17:19Z</time></trkpt>
<trkpt lat="46.18014145" lon="7.19504786"><ele>501.7860108024</ele><time>2010-05-15T15:17:27Z</time></trkpt>
<trkpt lat="46.17980957" lon="7.19447803"><ele>500.4909972888</ele><time>2010-05-15T15:17:35Z</time></trkpt>
<trkpt lat="46.17958069" lon="7.19408798"><ele>500.3659972848</ele><time>2010-05-15T15:17:41Z</time></trkpt>
<trkpt lat="46.17954254" lon="7.19403601"><ele>500.3259886272</ele><time>2010-05-15T15:17:42Z</time></trkpt>
<trkpt lat="46.17944336" lon="7.19390011"><ele>499.7659911696</ele><time>2010-05-15T15:17:45Z</time></trkpt>
<trkpt lat="46.17929459" lon="7.19408894"><ele>498.5069885568</ele><time>2010-05-15T15:17:48Z</time></trkpt>
<trkpt lat="46.17891312" lon="7.19459009"><ele>496.236999396</ele><time>2010-05-15T15:17:55Z</time></trkpt>
<trkpt lat="46.17839050" lon="7.19520283"><ele>494.106994512</ele><time>2010-05-15T15:18:03Z</time></trkpt>
<trkpt lat="46.17802811" lon="7.19571877"><ele>492.825988692</ele><time>2010-05-15T15:18:09Z</time></trkpt>
<trkpt lat="46.17789841" lon="7.19577885"><ele>492.4590149784</ele><time>2010-05-15T15:18:12Z</time></trkpt>
<trkpt lat="46.17774963" lon="7.19581318"><ele>491.3640136632</ele><time>2010-05-15T15:18:14Z</time></trkpt>
<trkpt lat="46.17772293" lon="7.19588995"><ele>490.9230040296</ele><time>2010-05-15T15:18:15Z</time></trkpt>
<trkpt lat="46.17758942" lon="7.19628477"><ele>488.7550049112</ele><time>2010-05-15T15:18:19Z</time></trkpt>
<trkpt lat="46.17730331" lon="7.19712496"><ele>486.050994876</ele><time>2010-05-15T15:18:26Z</time></trkpt>
<trkpt lat="46.17695999" lon="7.19814014"><ele>483.8670044256</ele><time>2010-05-15T15:18:34Z</time></trkpt>
<trkpt lat="46.17652512" lon="7.19940281"><ele>482.170989936</ele><time>2010-05-15T15:18:44Z</time></trkpt>
<trkpt lat="46.17616272" lon="7.20052099"><ele>480.6480101016</ele><time>2010-05-15T15:18:53Z</time></trkpt>
<trkpt lat="46.17610931" lon="7.20062685"><ele>480.5190123408</ele><time>2010-05-15T15:18:54Z</time></trkpt>
<trkpt lat="46.17579651" lon="7.20105124"><ele>479.7539978688</ele><time>2010-05-15T15:18:59Z</time></trkpt>
<trkpt lat="46.17561722" lon="7.20115519"><ele>479.1319885464</ele><time>2010-05-15T15:19:02Z</time></trkpt>
<trkpt lat="46.17559814" lon="7.20108700"><ele>478.4249878776</ele><time>2010-05-15T15:19:04Z</time></trkpt>
<trkpt lat="46.17552185" lon="7.20088482"><ele>478.0419920472</ele><time>2010-05-15T15:19:07Z</time></trkpt>
<trkpt lat="46.17528152" lon="7.20026302"><ele>478.135009692</ele><time>2010-05-15T15:19:16Z</time></trkpt>
<trkpt lat="46.17504120" lon="7.19959211"><ele>477.9760132104</ele><time>2010-05-15T15:19:25Z</time></trkpt>
<trkpt lat="46.17480469" lon="7.19894791"><ele>477.6539917056</ele><time>2010-05-15T15:19:33Z</time></trkpt>
<trkpt lat="46.17458725" lon="7.19845295"><ele>476.604003864</ele><time>2010-05-15T15:19:40Z</time></trkpt>
<trkpt lat="46.17432785" lon="7.19813204"><ele>476.3080138032</ele><time>2010-05-15T15:19:46Z</time></trkpt>
<trkpt lat="46.17396164" lon="7.19776487"><ele>475.687988424</ele><time>2010-05-15T15:19:54Z</time></trkpt>
<trkpt lat="46.17378235" lon="7.19760084"><ele>475.6589964576</ele><time>2010-05-15T15:19:58Z</time></trkpt>
<trkpt lat="46.17340851" lon="7.19730186"><ele>475.3680115176</ele><time>2010-05-15T15:20:06Z</time></trkpt>
<trkpt lat="46.17279053" lon="7.19674206"><ele>474.791992248</ele><time>2010-05-15T15:20:19Z</time></trkpt>
<trkpt lat="46.17220306" lon="7.19622803"><ele>475.6589964576</ele><time>2010-05-15T15:20:31Z</time></trkpt>
<trkpt lat="46.17174911" lon="7.19583797"><ele>475.2879945072</ele><time>2010-05-15T15:20:41Z</time></trkpt>
<trkpt lat="46.17128754" lon="7.19543409"><ele>474.7279967448</ele><time>2010-05-15T15:20:51Z</time></trkpt>
<trkpt lat="46.17096329" lon="7.19514990"><ele>474.6610108488</ele><time>2010-05-15T15:20:58Z</time></trkpt>
<trkpt lat="46.17081070" lon="7.19501591"><ele>474.5079954576</ele><time>2010-05-15T15:21:02Z</time></trkpt>
<trkpt lat="46.17069244" lon="7.19491482"><ele>474.2959899888</ele><time>2010-05-15T15:21:05Z</time></trkpt>
<trkpt lat="46.17032242" lon="7.19459486"><ele>473.8460082624</ele><time>2010-05-15T15:21:13Z</time></trkpt>
<trkpt lat="46.16994476" lon="7.19426394"><ele>473.709014988</ele><time>2010-05-15T15:21:21Z</time></trkpt>
<trkpt lat="46.16976547" lon="7.19409990"><ele>473.6260069752</ele><time>2010-05-15T15:21:25Z</time></trkpt>
<trkpt lat="46.16978836" lon="7.19370985"><ele>473.2780149864</ele><time>2010-05-15T15:21:28Z</time></trkpt>
<trkpt lat="46.16985321" lon="7.19358587"><ele>473.0199889848</ele><time>2010-05-15T15:21:30Z</time></trkpt>
<trkpt lat="46.17021179" lon="7.19291592"><ele>472.1849976144</ele><time>2010-05-15T15:21:40Z</time></trkpt>
<trkpt lat="46.17053604" lon="7.19230413"><ele>471.5929870128</ele><time>2010-05-15T15:21:49Z</time></trkpt>
<trkpt lat="46.17084885" lon="7.19170284"><ele>471.1430052864</ele><time>2010-05-15T15:21:58Z</time></trkpt>
<trkpt lat="46.17111969" lon="7.19117594"><ele>470.7130126488</ele><time>2010-05-15T15:22:06Z</time></trkpt>
<trkpt lat="46.17122269" lon="7.19098091"><ele>470.6170043064</ele><time>2010-05-15T15:22:09Z</time></trkpt>
<trkpt lat="46.17139053" lon="7.19096088"><ele>470.6560059048</ele><time>2010-05-15T15:22:13Z</time></trkpt>
<trkpt lat="46.17143631" lon="7.19100904"><ele>470.6400145728</ele><time>2010-05-15T15:22:14Z</time></trkpt>
<trkpt lat="46.17152786" lon="7.19110584"><ele>470.7030030168</ele><time>2010-05-15T15:22:16Z</time></trkpt>
<trkpt lat="46.17166138" lon="7.19124794"><ele>470.5960081584</ele><time>2010-05-15T15:22:19Z</time></trkpt>
<trkpt lat="46.17192841" lon="7.19152784"><ele>470.770995972</ele><time>2010-05-15T15:22:25Z</time></trkpt>
<trkpt lat="46.17225266" lon="7.19187212"><ele>470.8900145808</ele><time>2010-05-15T15:22:33Z</time></trkpt>
<trkpt lat="46.17241669" lon="7.19204283"><ele>471.3800049648</ele><time>2010-05-15T15:22:37Z</time></trkpt>
<trkpt lat="46.17269135" lon="7.19234705"><ele>470.8590088008</ele><time>2010-05-15T15:22:43Z</time></trkpt>
<trkpt lat="46.17311859" lon="7.19281006"><ele>470.7999879384</ele><time>2010-05-15T15:22:52Z</time></trkpt>
<trkpt lat="46.17359161" lon="7.19332981"><ele>471.0809937264</ele><time>2010-05-15T15:23:02Z</time></trkpt>
<trkpt lat="46.17406464" lon="7.19383383"><ele>471.3710020872</ele><time>2010-05-15T15:23:11Z</time></trkpt>
<trkpt lat="46.17420959" lon="7.19399118"><ele>471.7720030632</ele><time>2010-05-15T15:23:14Z</time></trkpt>
<trkpt lat="46.17416382" lon="7.19394207"><ele>471.5539857192</ele><time>2010-05-15T15:23:17Z</time></trkpt>
<trkpt lat="46.17416382" lon="7.19394207"><ele>471.459014916</ele><time>2010-05-15T15:23:18Z</time></trkpt>
<trkpt lat="46.17416382" lon="7.19394207"><ele>471.6499937568</ele><time>2010-05-15T15:23:24Z</time></trkpt>
<trkpt lat="46.17434311" lon="7.19414091"><ele>471.6950072304</ele><time>2010-05-15T15:23:27Z</time></trkpt>
<trkpt lat="46.17441177" lon="7.19421911"><ele>471.984985416</ele><time>2010-05-15T15:23:29Z</time></trkpt>
<trkpt lat="46.17508698" lon="7.19389391"><ele>472.442993136</ele><time>2010-05-15T15:23:34Z</time></trkpt>
<trkpt lat="46.17510986" lon="7.19384623"><ele>472.3359985824</ele><time>2010-05-15T15:23:35Z</time></trkpt>
<trkpt lat="46.17536926" lon="7.19336891"><ele>471.9240110904</ele><time>2010-05-15T15:23:44Z</time></trkpt>
<trkpt lat="46.17539978" lon="7.19330788"><ele>471.885986376</ele><time>2010-05-15T15:23:45Z</time></trkpt>
<trkpt lat="46.17551041" lon="7.19309998"><ele>471.7489927968</ele><time>2010-05-15T15:23:49Z</time></trkpt>
<trkpt lat="46.17528152" lon="7.19353390"><ele>471.1159972632</ele><time>2010-05-15T15:23:54Z</time></trkpt>
<trkpt lat="46.17500687" lon="7.19229698"><ele>471.0929869968</ele><time>2010-05-15T15:23:56Z</time></trkpt>
<trkpt lat="46.17449188" lon="7.19153786"><ele>471.0130004664</ele><time>2010-05-15T15:24:00Z</time></trkpt>
<trkpt lat="46.17451096" lon="7.19149923"><ele>471.1690062504</ele><time>2010-05-15T15:24:01Z</time></trkpt>
<trkpt lat="46.17521667" lon="7.19091702"><ele>472.2030030648</ele><time>2010-05-15T15:24:05Z</time></trkpt>
<trkpt lat="46.17459488" lon="7.19133615"><ele>472.5719908968</ele><time>2010-05-15T15:24:08Z</time></trkpt>
<trkpt lat="46.17459488" lon="7.19133615"><ele>472.7950133616</ele><time>2010-05-15T15:24:10Z</time></trkpt>
</trkseg></trk></gpx>